<?xml version="1.0" encoding="UTF-8" standalone="no" ?>
<gpx xmlns="http://www.topografix.com/GPX/1/1" xmlns:xsi="http://www.w3.org/2001/XMLSchema-instance" xsi:schemaLocation="http://www.topografix.com/GPX/1/1 http://www.topografix.com/GPX/1/1/gpx.xsd" version="1.1" creator="VisuGPX - https://www.visugpx.com">
  <metadata>
    <name>Rando à Peyrusse le roc</name>
    <desc><![CDATA[incroyable!!!!!]]></desc>
  </metadata>
  <trk>
    <name><![CDATA[Rando à Peyrusse le roc_1]]></name>
    <trkseg>
      <trkpt lat="44.49539" lon="2.14094">
        <ele>419.8</ele>
        <time>2022-04-27T12:41:41Z</time>
      </trkpt>
      <trkpt lat="44.49513" lon="2.14154">
        <ele>419.2</ele>
        <time>2022-04-27T12:41:46Z</time>
      </trkpt>
      <trkpt lat="44.49513" lon="2.14153">
        <ele>419</ele>
        <time>2022-04-27T12:41:47Z</time>
      </trkpt>
      <trkpt lat="44.49514" lon="2.14149">
        <ele>419</ele>
        <time>2022-04-27T12:41:50Z</time>
      </trkpt>
      <trkpt lat="44.49514" lon="2.1415">
        <ele>418.8</ele>
        <time>2022-04-27T12:41:58Z</time>
      </trkpt>
      <trkpt lat="44.49514" lon="2.1415">
        <ele>419.2</ele>
        <time>2022-04-27T12:41:59Z</time>
      </trkpt>
      <trkpt lat="44.49514" lon="2.14151">
        <ele>419.2</ele>
        <time>2022-04-27T12:42:03Z</time>
      </trkpt>
      <trkpt lat="44.4952" lon="2.14146">
        <ele>419.2</ele>
        <time>2022-04-27T12:42:11Z</time>
      </trkpt>
      <trkpt lat="44.4953" lon="2.14136">
        <ele>419</ele>
        <time>2022-04-27T12:42:22Z</time>
      </trkpt>
      <trkpt lat="44.49537" lon="2.14124">
        <ele>418.6</ele>
        <time>2022-04-27T12:42:35Z</time>
      </trkpt>
      <trkpt lat="44.4954" lon="2.14126">
        <ele>418.2</ele>
        <time>2022-04-27T12:42:39Z</time>
      </trkpt>
      <trkpt lat="44.49542" lon="2.14129">
        <ele>418</ele>
        <time>2022-04-27T12:42:42Z</time>
      </trkpt>
      <trkpt lat="44.49544" lon="2.14138">
        <ele>417</ele>
        <time>2022-04-27T12:42:49Z</time>
      </trkpt>
      <trkpt lat="44.49544" lon="2.1414">
        <ele>416.6</ele>
        <time>2022-04-27T12:42:52Z</time>
      </trkpt>
      <trkpt lat="44.49544" lon="2.14141">
        <ele>416.4</ele>
        <time>2022-04-27T12:42:54Z</time>
      </trkpt>
      <trkpt lat="44.49544" lon="2.14142">
        <ele>416</ele>
        <time>2022-04-27T12:42:58Z</time>
      </trkpt>
      <trkpt lat="44.49544" lon="2.14142">
        <ele>415.6</ele>
        <time>2022-04-27T12:43:02Z</time>
      </trkpt>
      <trkpt lat="44.49544" lon="2.14147">
        <ele>415.4</ele>
        <time>2022-04-27T12:43:12Z</time>
      </trkpt>
      <trkpt lat="44.49541" lon="2.14149">
        <ele>415</ele>
        <time>2022-04-27T12:43:15Z</time>
      </trkpt>
      <trkpt lat="44.49542" lon="2.14154">
        <ele>414.4</ele>
        <time>2022-04-27T12:43:21Z</time>
      </trkpt>
      <trkpt lat="44.49542" lon="2.14156">
        <ele>414</ele>
        <time>2022-04-27T12:43:24Z</time>
      </trkpt>
      <trkpt lat="44.49542" lon="2.14159">
        <ele>413.4</ele>
        <time>2022-04-27T12:43:26Z</time>
      </trkpt>
      <trkpt lat="44.49541" lon="2.14161">
        <ele>413</ele>
        <time>2022-04-27T12:43:28Z</time>
      </trkpt>
      <trkpt lat="44.4954" lon="2.14161">
        <ele>412.8</ele>
        <time>2022-04-27T12:43:29Z</time>
      </trkpt>
      <trkpt lat="44.4954" lon="2.14162">
        <ele>412.6</ele>
        <time>2022-04-27T12:43:31Z</time>
      </trkpt>
      <trkpt lat="44.49543" lon="2.14166">
        <ele>411.6</ele>
        <time>2022-04-27T12:43:38Z</time>
      </trkpt>
      <trkpt lat="44.49543" lon="2.14169">
        <ele>411.2</ele>
        <time>2022-04-27T12:43:41Z</time>
      </trkpt>
      <trkpt lat="44.49542" lon="2.14178">
        <ele>410.6</ele>
        <time>2022-04-27T12:43:49Z</time>
      </trkpt>
      <trkpt lat="44.49543" lon="2.14179">
        <ele>410.4</ele>
        <time>2022-04-27T12:43:50Z</time>
      </trkpt>
      <trkpt lat="44.49542" lon="2.1418">
        <ele>410.4</ele>
        <time>2022-04-27T12:43:52Z</time>
      </trkpt>
      <trkpt lat="44.49543" lon="2.14181">
        <ele>410.2</ele>
        <time>2022-04-27T12:43:59Z</time>
      </trkpt>
      <trkpt lat="44.49539" lon="2.1419">
        <ele>410.2</ele>
        <time>2022-04-27T12:44:09Z</time>
      </trkpt>
      <trkpt lat="44.4954" lon="2.14186">
        <ele>410.2</ele>
        <time>2022-04-27T12:44:16Z</time>
      </trkpt>
      <trkpt lat="44.49545" lon="2.14181">
        <ele>410.4</ele>
        <time>2022-04-27T12:44:24Z</time>
      </trkpt>
      <trkpt lat="44.49548" lon="2.14185">
        <ele>409.8</ele>
        <time>2022-04-27T12:44:33Z</time>
      </trkpt>
      <trkpt lat="44.4955" lon="2.14198">
        <ele>412.6</ele>
        <time>2022-04-27T13:05:03Z</time>
      </trkpt>
      <trkpt lat="44.49548" lon="2.14188">
        <ele>412.6</ele>
        <time>2022-04-27T13:05:11Z</time>
      </trkpt>
      <trkpt lat="44.49548" lon="2.14183">
        <ele>412.8</ele>
        <time>2022-04-27T13:05:14Z</time>
      </trkpt>
      <trkpt lat="44.49546" lon="2.14171">
        <ele>412.8</ele>
        <time>2022-04-27T13:05:22Z</time>
      </trkpt>
      <trkpt lat="44.49545" lon="2.14163">
        <ele>413</ele>
        <time>2022-04-27T13:05:28Z</time>
      </trkpt>
      <trkpt lat="44.49543" lon="2.14163">
        <ele>413.2</ele>
        <time>2022-04-27T13:05:30Z</time>
      </trkpt>
      <trkpt lat="44.49542" lon="2.14163">
        <ele>413.6</ele>
        <time>2022-04-27T13:05:32Z</time>
      </trkpt>
      <trkpt lat="44.49541" lon="2.14162">
        <ele>413.6</ele>
        <time>2022-04-27T13:05:33Z</time>
      </trkpt>
      <trkpt lat="44.49542" lon="2.14155">
        <ele>414</ele>
        <time>2022-04-27T13:05:42Z</time>
      </trkpt>
      <trkpt lat="44.4954" lon="2.14152">
        <ele>414.8</ele>
        <time>2022-04-27T13:05:47Z</time>
      </trkpt>
      <trkpt lat="44.49542" lon="2.14149">
        <ele>415.2</ele>
        <time>2022-04-27T13:05:52Z</time>
      </trkpt>
      <trkpt lat="44.49542" lon="2.14145">
        <ele>415.8</ele>
        <time>2022-04-27T13:05:58Z</time>
      </trkpt>
      <trkpt lat="44.49541" lon="2.14144">
        <ele>416.4</ele>
        <time>2022-04-27T13:06:02Z</time>
      </trkpt>
      <trkpt lat="44.49539" lon="2.14141">
        <ele>417</ele>
        <time>2022-04-27T13:06:05Z</time>
      </trkpt>
      <trkpt lat="44.4954" lon="2.14132">
        <ele>418</ele>
        <time>2022-04-27T13:06:14Z</time>
      </trkpt>
      <trkpt lat="44.49542" lon="2.1413">
        <ele>418.4</ele>
        <time>2022-04-27T13:06:19Z</time>
      </trkpt>
      <trkpt lat="44.49542" lon="2.14129">
        <ele>418.4</ele>
        <time>2022-04-27T13:06:22Z</time>
      </trkpt>
      <trkpt lat="44.49548" lon="2.14129">
        <ele>417.8</ele>
        <time>2022-04-27T13:06:39Z</time>
      </trkpt>
      <trkpt lat="44.49548" lon="2.14127">
        <ele>417.8</ele>
        <time>2022-04-27T13:06:57Z</time>
      </trkpt>
      <trkpt lat="44.49537" lon="2.14125">
        <ele>418.6</ele>
        <time>2022-04-27T13:07:11Z</time>
      </trkpt>
      <trkpt lat="44.49532" lon="2.1413">
        <ele>418.8</ele>
        <time>2022-04-27T13:07:17Z</time>
      </trkpt>
      <trkpt lat="44.4953" lon="2.14135">
        <ele>419</ele>
        <time>2022-04-27T13:07:20Z</time>
      </trkpt>
      <trkpt lat="44.49528" lon="2.14138">
        <ele>419.2</ele>
        <time>2022-04-27T13:07:22Z</time>
      </trkpt>
      <trkpt lat="44.49519" lon="2.14157">
        <ele>420.2</ele>
        <time>2022-04-27T13:07:35Z</time>
      </trkpt>
      <trkpt lat="44.49518" lon="2.14159">
        <ele>420.2</ele>
        <time>2022-04-27T13:07:37Z</time>
      </trkpt>
      <trkpt lat="44.49508" lon="2.14165">
        <ele>420.6</ele>
        <time>2022-04-27T13:07:47Z</time>
      </trkpt>
      <trkpt lat="44.49499" lon="2.14167">
        <ele>420.8</ele>
        <time>2022-04-27T13:07:58Z</time>
      </trkpt>
      <trkpt lat="44.49498" lon="2.14167">
        <ele>421</ele>
        <time>2022-04-27T13:07:59Z</time>
      </trkpt>
      <trkpt lat="44.49498" lon="2.14167">
        <ele>421</ele>
        <time>2022-04-27T13:08:00Z</time>
      </trkpt>
      <trkpt lat="44.49497" lon="2.14166">
        <ele>421.2</ele>
        <time>2022-04-27T13:08:11Z</time>
      </trkpt>
      <trkpt lat="44.49497" lon="2.14166">
        <ele>421.2</ele>
        <time>2022-04-27T13:08:15Z</time>
      </trkpt>
      <trkpt lat="44.49495" lon="2.14167">
        <ele>420.6</ele>
        <time>2022-04-27T13:08:30Z</time>
      </trkpt>
      <trkpt lat="44.49497" lon="2.14168">
        <ele>421</ele>
        <time>2022-04-27T13:08:45Z</time>
      </trkpt>
      <trkpt lat="44.49495" lon="2.14166">
        <ele>421.4</ele>
        <time>2022-04-27T13:08:59Z</time>
      </trkpt>
      <trkpt lat="44.49499" lon="2.14167">
        <ele>420.2</ele>
        <time>2022-04-27T13:09:11Z</time>
      </trkpt>
      <trkpt lat="44.495" lon="2.14166">
        <ele>420.8</ele>
        <time>2022-04-27T13:09:12Z</time>
      </trkpt>
      <trkpt lat="44.49506" lon="2.14164">
        <ele>420.8</ele>
        <time>2022-04-27T13:09:18Z</time>
      </trkpt>
      <trkpt lat="44.4951" lon="2.14163">
        <ele>420.8</ele>
        <time>2022-04-27T13:09:21Z</time>
      </trkpt>
      <trkpt lat="44.49514" lon="2.14161">
        <ele>420.6</ele>
        <time>2022-04-27T13:09:26Z</time>
      </trkpt>
      <trkpt lat="44.49513" lon="2.14157">
        <ele>420.6</ele>
        <time>2022-04-27T13:09:38Z</time>
      </trkpt>
      <trkpt lat="44.49513" lon="2.14155">
        <ele>420.6</ele>
        <time>2022-04-27T13:09:53Z</time>
      </trkpt>
      <trkpt lat="44.49504" lon="2.14161">
        <ele>421</ele>
        <time>2022-04-27T13:10:05Z</time>
      </trkpt>
      <trkpt lat="44.49498" lon="2.14164">
        <ele>421.4</ele>
        <time>2022-04-27T13:10:14Z</time>
      </trkpt>
      <trkpt lat="44.49495" lon="2.14166">
        <ele>421.4</ele>
        <time>2022-04-27T13:10:19Z</time>
      </trkpt>
      <trkpt lat="44.49493" lon="2.14167">
        <ele>421.2</ele>
        <time>2022-04-27T13:10:33Z</time>
      </trkpt>
      <trkpt lat="44.49493" lon="2.14169">
        <ele>421.6</ele>
        <time>2022-04-27T13:10:44Z</time>
      </trkpt>
      <trkpt lat="44.49493" lon="2.14169">
        <ele>421.6</ele>
        <time>2022-04-27T13:10:51Z</time>
      </trkpt>
      <trkpt lat="44.49494" lon="2.14167">
        <ele>422.4</ele>
        <time>2022-04-27T13:11:05Z</time>
      </trkpt>
      <trkpt lat="44.49493" lon="2.14167">
        <ele>422.4</ele>
        <time>2022-04-27T13:11:09Z</time>
      </trkpt>
      <trkpt lat="44.49494" lon="2.14168">
        <ele>421.8</ele>
        <time>2022-04-27T13:11:25Z</time>
      </trkpt>
      <trkpt lat="44.49495" lon="2.14168">
        <ele>420.6</ele>
        <time>2022-04-27T13:11:30Z</time>
      </trkpt>
      <trkpt lat="44.49496" lon="2.14167">
        <ele>420.8</ele>
        <time>2022-04-27T13:11:39Z</time>
      </trkpt>
      <trkpt lat="44.49505" lon="2.14165">
        <ele>420.8</ele>
        <time>2022-04-27T13:11:52Z</time>
      </trkpt>
      <trkpt lat="44.49507" lon="2.14164">
        <ele>420.8</ele>
        <time>2022-04-27T13:11:53Z</time>
      </trkpt>
      <trkpt lat="44.49511" lon="2.1416">
        <ele>421.4</ele>
        <time>2022-04-27T13:12:02Z</time>
      </trkpt>
      <trkpt lat="44.4951" lon="2.14159">
        <ele>421.8</ele>
        <time>2022-04-27T13:12:03Z</time>
      </trkpt>
      <trkpt lat="44.49511" lon="2.14159">
        <ele>420.6</ele>
        <time>2022-04-27T13:12:10Z</time>
      </trkpt>
      <trkpt lat="44.49513" lon="2.14157">
        <ele>420.6</ele>
        <time>2022-04-27T13:12:20Z</time>
      </trkpt>
      <trkpt lat="44.49521" lon="2.14147">
        <ele>421</ele>
        <time>2022-04-27T13:12:29Z</time>
      </trkpt>
      <trkpt lat="44.49524" lon="2.14143">
        <ele>421.2</ele>
        <time>2022-04-27T13:12:32Z</time>
      </trkpt>
      <trkpt lat="44.49525" lon="2.1414">
        <ele>419.2</ele>
        <time>2022-04-27T13:12:34Z</time>
      </trkpt>
      <trkpt lat="44.49536" lon="2.14122">
        <ele>418.6</ele>
        <time>2022-04-27T13:12:49Z</time>
      </trkpt>
      <trkpt lat="44.49538" lon="2.14119">
        <ele>418.6</ele>
        <time>2022-04-27T13:12:54Z</time>
      </trkpt>
      <trkpt lat="44.49537" lon="2.14118">
        <ele>418</ele>
        <time>2022-04-27T13:12:57Z</time>
      </trkpt>
      <trkpt lat="44.49537" lon="2.14117">
        <ele>417.8</ele>
        <time>2022-04-27T13:12:59Z</time>
      </trkpt>
      <trkpt lat="44.49538" lon="2.14113">
        <ele>417.8</ele>
        <time>2022-04-27T13:13:15Z</time>
      </trkpt>
      <trkpt lat="44.49545" lon="2.14117">
        <ele>417</ele>
        <time>2022-04-27T13:13:28Z</time>
      </trkpt>
      <trkpt lat="44.49547" lon="2.14119">
        <ele>417</ele>
        <time>2022-04-27T13:13:30Z</time>
      </trkpt>
      <trkpt lat="44.49555" lon="2.14119">
        <ele>416.6</ele>
        <time>2022-04-27T13:13:35Z</time>
      </trkpt>
      <trkpt lat="44.49561" lon="2.14118">
        <ele>416.2</ele>
        <time>2022-04-27T13:13:40Z</time>
      </trkpt>
      <trkpt lat="44.49567" lon="2.14117">
        <ele>416</ele>
        <time>2022-04-27T13:13:46Z</time>
      </trkpt>
      <trkpt lat="44.49572" lon="2.14108">
        <ele>415.6</ele>
        <time>2022-04-27T13:13:49Z</time>
      </trkpt>
      <trkpt lat="44.49575" lon="2.14104">
        <ele>415.4</ele>
        <time>2022-04-27T13:13:54Z</time>
      </trkpt>
      <trkpt lat="44.49576" lon="2.14104">
        <ele>415.2</ele>
        <time>2022-04-27T13:13:58Z</time>
      </trkpt>
      <trkpt lat="44.4958" lon="2.14102">
        <ele>414.8</ele>
        <time>2022-04-27T13:14:02Z</time>
      </trkpt>
      <trkpt lat="44.49581" lon="2.14102">
        <ele>414.8</ele>
        <time>2022-04-27T13:14:03Z</time>
      </trkpt>
      <trkpt lat="44.49582" lon="2.14099">
        <ele>414.8</ele>
        <time>2022-04-27T13:14:05Z</time>
      </trkpt>
      <trkpt lat="44.49583" lon="2.14097">
        <ele>414.6</ele>
        <time>2022-04-27T13:14:07Z</time>
      </trkpt>
      <trkpt lat="44.49583" lon="2.14096">
        <ele>414.4</ele>
        <time>2022-04-27T13:14:08Z</time>
      </trkpt>
      <trkpt lat="44.49584" lon="2.14091">
        <ele>413.6</ele>
        <time>2022-04-27T13:14:15Z</time>
      </trkpt>
      <trkpt lat="44.49587" lon="2.14082">
        <ele>412.6</ele>
        <time>2022-04-27T13:14:24Z</time>
      </trkpt>
      <trkpt lat="44.49587" lon="2.14081">
        <ele>412.6</ele>
        <time>2022-04-27T13:14:25Z</time>
      </trkpt>
      <trkpt lat="44.49588" lon="2.14078">
        <ele>412.4</ele>
        <time>2022-04-27T13:14:28Z</time>
      </trkpt>
      <trkpt lat="44.49589" lon="2.14075">
        <ele>412.2</ele>
        <time>2022-04-27T13:14:31Z</time>
      </trkpt>
      <trkpt lat="44.49593" lon="2.14074">
        <ele>412.4</ele>
        <time>2022-04-27T13:14:34Z</time>
      </trkpt>
      <trkpt lat="44.49593" lon="2.14074">
        <ele>412.4</ele>
        <time>2022-04-27T13:14:35Z</time>
      </trkpt>
      <trkpt lat="44.496" lon="2.14063">
        <ele>412</ele>
        <time>2022-04-27T13:14:42Z</time>
      </trkpt>
      <trkpt lat="44.49608" lon="2.14059">
        <ele>412.2</ele>
        <time>2022-04-27T13:14:49Z</time>
      </trkpt>
      <trkpt lat="44.49624" lon="2.14057">
        <ele>413.4</ele>
        <time>2022-04-27T13:15:06Z</time>
      </trkpt>
      <trkpt lat="44.49624" lon="2.14058">
        <ele>413.6</ele>
        <time>2022-04-27T13:15:08Z</time>
      </trkpt>
      <trkpt lat="44.49625" lon="2.1406">
        <ele>413.4</ele>
        <time>2022-04-27T13:15:11Z</time>
      </trkpt>
      <trkpt lat="44.49626" lon="2.14063">
        <ele>413.4</ele>
        <time>2022-04-27T13:15:13Z</time>
      </trkpt>
      <trkpt lat="44.49627" lon="2.14069">
        <ele>413.6</ele>
        <time>2022-04-27T13:15:16Z</time>
      </trkpt>
      <trkpt lat="44.49627" lon="2.14071">
        <ele>414</ele>
        <time>2022-04-27T13:15:17Z</time>
      </trkpt>
      <trkpt lat="44.49627" lon="2.14076">
        <ele>414.2</ele>
        <time>2022-04-27T13:15:19Z</time>
      </trkpt>
      <trkpt lat="44.49625" lon="2.14078">
        <ele>414.8</ele>
        <time>2022-04-27T13:15:24Z</time>
      </trkpt>
      <trkpt lat="44.49623" lon="2.14079">
        <ele>414.8</ele>
        <time>2022-04-27T13:15:27Z</time>
      </trkpt>
      <trkpt lat="44.49621" lon="2.14079">
        <ele>414.8</ele>
        <time>2022-04-27T13:15:29Z</time>
      </trkpt>
      <trkpt lat="44.49627" lon="2.14081">
        <ele>415.6</ele>
        <time>2022-04-27T13:15:41Z</time>
      </trkpt>
      <trkpt lat="44.49628" lon="2.14082">
        <ele>415.8</ele>
        <time>2022-04-27T13:15:42Z</time>
      </trkpt>
      <trkpt lat="44.49629" lon="2.14083">
        <ele>415.8</ele>
        <time>2022-04-27T13:15:43Z</time>
      </trkpt>
      <trkpt lat="44.4964" lon="2.14098">
        <ele>416.6</ele>
        <time>2022-04-27T13:15:56Z</time>
      </trkpt>
      <trkpt lat="44.4964" lon="2.14099">
        <ele>416.4</ele>
        <time>2022-04-27T13:15:58Z</time>
      </trkpt>
      <trkpt lat="44.49642" lon="2.14097">
        <ele>416.8</ele>
        <time>2022-04-27T13:16:05Z</time>
      </trkpt>
      <trkpt lat="44.49648" lon="2.14102">
        <ele>416.4</ele>
        <time>2022-04-27T13:16:18Z</time>
      </trkpt>
      <trkpt lat="44.4965" lon="2.14106">
        <ele>416.6</ele>
        <time>2022-04-27T13:16:22Z</time>
      </trkpt>
      <trkpt lat="44.49647" lon="2.1411">
        <ele>416.4</ele>
        <time>2022-04-27T13:16:26Z</time>
      </trkpt>
      <trkpt lat="44.49646" lon="2.14113">
        <ele>416.4</ele>
        <time>2022-04-27T13:16:29Z</time>
      </trkpt>
      <trkpt lat="44.49643" lon="2.14115">
        <ele>416.6</ele>
        <time>2022-04-27T13:16:40Z</time>
      </trkpt>
      <trkpt lat="44.49642" lon="2.14125">
        <ele>416</ele>
        <time>2022-04-27T13:16:50Z</time>
      </trkpt>
      <trkpt lat="44.49643" lon="2.14128">
        <ele>415.8</ele>
        <time>2022-04-27T13:16:53Z</time>
      </trkpt>
      <trkpt lat="44.49644" lon="2.14135">
        <ele>414.6</ele>
        <time>2022-04-27T13:16:58Z</time>
      </trkpt>
      <trkpt lat="44.49647" lon="2.1414">
        <ele>414.2</ele>
        <time>2022-04-27T13:17:02Z</time>
      </trkpt>
      <trkpt lat="44.4965" lon="2.14145">
        <ele>413.8</ele>
        <time>2022-04-27T13:17:08Z</time>
      </trkpt>
      <trkpt lat="44.4965" lon="2.14145">
        <ele>414</ele>
        <time>2022-04-27T13:17:13Z</time>
      </trkpt>
      <trkpt lat="44.4965" lon="2.14145">
        <ele>414</ele>
        <time>2022-04-27T13:17:14Z</time>
      </trkpt>
      <trkpt lat="44.4965" lon="2.14144">
        <ele>414</ele>
        <time>2022-04-27T13:17:26Z</time>
      </trkpt>
      <trkpt lat="44.4965" lon="2.14144">
        <ele>413.4</ele>
        <time>2022-04-27T13:17:33Z</time>
      </trkpt>
      <trkpt lat="44.49651" lon="2.14143">
        <ele>413.4</ele>
        <time>2022-04-27T13:17:45Z</time>
      </trkpt>
      <trkpt lat="44.49653" lon="2.14142">
        <ele>413.4</ele>
        <time>2022-04-27T13:18:00Z</time>
      </trkpt>
      <trkpt lat="44.49652" lon="2.14143">
        <ele>413.4</ele>
        <time>2022-04-27T13:18:15Z</time>
      </trkpt>
      <trkpt lat="44.49652" lon="2.14142">
        <ele>413.8</ele>
        <time>2022-04-27T13:18:30Z</time>
      </trkpt>
      <trkpt lat="44.49653" lon="2.14141">
        <ele>413.4</ele>
        <time>2022-04-27T13:18:49Z</time>
      </trkpt>
      <trkpt lat="44.49654" lon="2.14133">
        <ele>414.6</ele>
        <time>2022-04-27T13:19:00Z</time>
      </trkpt>
      <trkpt lat="44.49654" lon="2.14131">
        <ele>415.2</ele>
        <time>2022-04-27T13:19:02Z</time>
      </trkpt>
      <trkpt lat="44.49654" lon="2.1413">
        <ele>415.6</ele>
        <time>2022-04-27T13:19:03Z</time>
      </trkpt>
      <trkpt lat="44.49654" lon="2.14119">
        <ele>416.6</ele>
        <time>2022-04-27T13:19:16Z</time>
      </trkpt>
      <trkpt lat="44.49654" lon="2.14119">
        <ele>416.6</ele>
        <time>2022-04-27T13:19:17Z</time>
      </trkpt>
      <trkpt lat="44.49657" lon="2.14113">
        <ele>416.4</ele>
        <time>2022-04-27T13:19:28Z</time>
      </trkpt>
      <trkpt lat="44.49655" lon="2.14109">
        <ele>416.6</ele>
        <time>2022-04-27T13:19:30Z</time>
      </trkpt>
      <trkpt lat="44.49651" lon="2.14103">
        <ele>416.6</ele>
        <time>2022-04-27T13:19:35Z</time>
      </trkpt>
      <trkpt lat="44.4965" lon="2.14101">
        <ele>416.6</ele>
        <time>2022-04-27T13:19:38Z</time>
      </trkpt>
      <trkpt lat="44.49643" lon="2.14102">
        <ele>416.8</ele>
        <time>2022-04-27T13:19:52Z</time>
      </trkpt>
      <trkpt lat="44.49638" lon="2.14105">
        <ele>417.2</ele>
        <time>2022-04-27T13:20:05Z</time>
      </trkpt>
      <trkpt lat="44.49632" lon="2.14103">
        <ele>417.8</ele>
        <time>2022-04-27T13:20:18Z</time>
      </trkpt>
      <trkpt lat="44.49636" lon="2.14101">
        <ele>417.8</ele>
        <time>2022-04-27T13:20:19Z</time>
      </trkpt>
      <trkpt lat="44.49648" lon="2.14106">
        <ele>418</ele>
        <time>2022-04-27T13:20:49Z</time>
      </trkpt>
      <trkpt lat="44.49649" lon="2.14097">
        <ele>416.4</ele>
        <time>2022-04-27T13:20:53Z</time>
      </trkpt>
      <trkpt lat="44.49649" lon="2.14095">
        <ele>416.4</ele>
        <time>2022-04-27T13:20:54Z</time>
      </trkpt>
      <trkpt lat="44.49655" lon="2.14088">
        <ele>416.2</ele>
        <time>2022-04-27T13:21:05Z</time>
      </trkpt>
      <trkpt lat="44.4966" lon="2.1409">
        <ele>416.2</ele>
        <time>2022-04-27T13:21:18Z</time>
      </trkpt>
      <trkpt lat="44.49663" lon="2.14085">
        <ele>417.2</ele>
        <time>2022-04-27T13:21:31Z</time>
      </trkpt>
      <trkpt lat="44.49669" lon="2.14086">
        <ele>416</ele>
        <time>2022-04-27T13:21:44Z</time>
      </trkpt>
      <trkpt lat="44.49681" lon="2.14081">
        <ele>416.2</ele>
        <time>2022-04-27T13:22:02Z</time>
      </trkpt>
      <trkpt lat="44.49682" lon="2.14081">
        <ele>416.4</ele>
        <time>2022-04-27T13:22:03Z</time>
      </trkpt>
      <trkpt lat="44.49686" lon="2.1408">
        <ele>416.4</ele>
        <time>2022-04-27T13:22:06Z</time>
      </trkpt>
      <trkpt lat="44.49689" lon="2.14079">
        <ele>416.2</ele>
        <time>2022-04-27T13:22:10Z</time>
      </trkpt>
      <trkpt lat="44.49689" lon="2.14078">
        <ele>416.2</ele>
        <time>2022-04-27T13:22:12Z</time>
      </trkpt>
      <trkpt lat="44.4969" lon="2.14075">
        <ele>416.2</ele>
        <time>2022-04-27T13:22:16Z</time>
      </trkpt>
      <trkpt lat="44.49692" lon="2.14068">
        <ele>415.4</ele>
        <time>2022-04-27T13:22:24Z</time>
      </trkpt>
      <trkpt lat="44.49694" lon="2.14066">
        <ele>415</ele>
        <time>2022-04-27T13:22:28Z</time>
      </trkpt>
      <trkpt lat="44.49694" lon="2.14064">
        <ele>414.6</ele>
        <time>2022-04-27T13:22:31Z</time>
      </trkpt>
      <trkpt lat="44.49696" lon="2.14061">
        <ele>414.2</ele>
        <time>2022-04-27T13:22:35Z</time>
      </trkpt>
      <trkpt lat="44.49703" lon="2.14056">
        <ele>414.2</ele>
        <time>2022-04-27T13:22:40Z</time>
      </trkpt>
      <trkpt lat="44.4971" lon="2.14043">
        <ele>413.2</ele>
        <time>2022-04-27T13:22:48Z</time>
      </trkpt>
      <trkpt lat="44.49715" lon="2.14035">
        <ele>412</ele>
        <time>2022-04-27T13:22:54Z</time>
      </trkpt>
      <trkpt lat="44.49718" lon="2.14031">
        <ele>410.8</ele>
        <time>2022-04-27T13:22:59Z</time>
      </trkpt>
      <trkpt lat="44.4972" lon="2.14031">
        <ele>410.2</ele>
        <time>2022-04-27T13:23:02Z</time>
      </trkpt>
      <trkpt lat="44.49722" lon="2.14026">
        <ele>409.8</ele>
        <time>2022-04-27T13:23:07Z</time>
      </trkpt>
      <trkpt lat="44.49723" lon="2.14024">
        <ele>409.6</ele>
        <time>2022-04-27T13:23:09Z</time>
      </trkpt>
      <trkpt lat="44.49726" lon="2.14013">
        <ele>408.6</ele>
        <time>2022-04-27T13:23:17Z</time>
      </trkpt>
      <trkpt lat="44.49729" lon="2.14008">
        <ele>407.8</ele>
        <time>2022-04-27T13:23:21Z</time>
      </trkpt>
      <trkpt lat="44.49729" lon="2.14007">
        <ele>407.4</ele>
        <time>2022-04-27T13:23:22Z</time>
      </trkpt>
      <trkpt lat="44.49733" lon="2.14007">
        <ele>406.4</ele>
        <time>2022-04-27T13:23:26Z</time>
      </trkpt>
      <trkpt lat="44.49738" lon="2.14001">
        <ele>405.4</ele>
        <time>2022-04-27T13:23:34Z</time>
      </trkpt>
      <trkpt lat="44.49742" lon="2.13995">
        <ele>404.4</ele>
        <time>2022-04-27T13:23:41Z</time>
      </trkpt>
      <trkpt lat="44.49744" lon="2.13991">
        <ele>403.2</ele>
        <time>2022-04-27T13:23:45Z</time>
      </trkpt>
      <trkpt lat="44.49746" lon="2.13988">
        <ele>402.2</ele>
        <time>2022-04-27T13:23:49Z</time>
      </trkpt>
      <trkpt lat="44.49749" lon="2.13985">
        <ele>401.6</ele>
        <time>2022-04-27T13:23:53Z</time>
      </trkpt>
      <trkpt lat="44.4975" lon="2.13984">
        <ele>401</ele>
        <time>2022-04-27T13:23:54Z</time>
      </trkpt>
      <trkpt lat="44.49752" lon="2.13981">
        <ele>400</ele>
        <time>2022-04-27T13:23:59Z</time>
      </trkpt>
      <trkpt lat="44.49754" lon="2.13978">
        <ele>398.8</ele>
        <time>2022-04-27T13:24:03Z</time>
      </trkpt>
      <trkpt lat="44.49756" lon="2.13976">
        <ele>397.6</ele>
        <time>2022-04-27T13:24:06Z</time>
      </trkpt>
      <trkpt lat="44.49759" lon="2.13973">
        <ele>396.8</ele>
        <time>2022-04-27T13:24:10Z</time>
      </trkpt>
      <trkpt lat="44.49759" lon="2.13972">
        <ele>396.6</ele>
        <time>2022-04-27T13:24:11Z</time>
      </trkpt>
      <trkpt lat="44.49762" lon="2.13968">
        <ele>395.6</ele>
        <time>2022-04-27T13:24:17Z</time>
      </trkpt>
      <trkpt lat="44.49759" lon="2.13961">
        <ele>395.2</ele>
        <time>2022-04-27T13:24:22Z</time>
      </trkpt>
      <trkpt lat="44.49758" lon="2.1396">
        <ele>395.2</ele>
        <time>2022-04-27T13:24:24Z</time>
      </trkpt>
      <trkpt lat="44.49758" lon="2.13959">
        <ele>394.6</ele>
        <time>2022-04-27T13:24:32Z</time>
      </trkpt>
      <trkpt lat="44.49756" lon="2.1396">
        <ele>394.4</ele>
        <time>2022-04-27T13:24:39Z</time>
      </trkpt>
      <trkpt lat="44.4976" lon="2.13971">
        <ele>394.8</ele>
        <time>2022-04-27T13:24:49Z</time>
      </trkpt>
      <trkpt lat="44.4976" lon="2.13972">
        <ele>394.6</ele>
        <time>2022-04-27T13:24:50Z</time>
      </trkpt>
      <trkpt lat="44.49764" lon="2.13977">
        <ele>394.6</ele>
        <time>2022-04-27T13:24:56Z</time>
      </trkpt>
      <trkpt lat="44.49765" lon="2.13976">
        <ele>395.2</ele>
        <time>2022-04-27T13:24:59Z</time>
      </trkpt>
      <trkpt lat="44.49771" lon="2.13975">
        <ele>394.2</ele>
        <time>2022-04-27T13:25:11Z</time>
      </trkpt>
      <trkpt lat="44.49773" lon="2.13972">
        <ele>393.4</ele>
        <time>2022-04-27T13:25:14Z</time>
      </trkpt>
      <trkpt lat="44.49775" lon="2.1397">
        <ele>393</ele>
        <time>2022-04-27T13:25:18Z</time>
      </trkpt>
      <trkpt lat="44.49774" lon="2.13968">
        <ele>393.2</ele>
        <time>2022-04-27T13:25:21Z</time>
      </trkpt>
      <trkpt lat="44.49774" lon="2.1397">
        <ele>392.4</ele>
        <time>2022-04-27T13:25:31Z</time>
      </trkpt>
      <trkpt lat="44.49774" lon="2.13971">
        <ele>392.4</ele>
        <time>2022-04-27T13:25:35Z</time>
      </trkpt>
      <trkpt lat="44.49774" lon="2.1397">
        <ele>392.2</ele>
        <time>2022-04-27T13:25:49Z</time>
      </trkpt>
      <trkpt lat="44.49773" lon="2.13971">
        <ele>392.4</ele>
        <time>2022-04-27T13:26:01Z</time>
      </trkpt>
      <trkpt lat="44.4977" lon="2.13967">
        <ele>392.2</ele>
        <time>2022-04-27T13:26:05Z</time>
      </trkpt>
      <trkpt lat="44.49768" lon="2.13964">
        <ele>391.2</ele>
        <time>2022-04-27T13:26:09Z</time>
      </trkpt>
      <trkpt lat="44.49767" lon="2.13961">
        <ele>391</ele>
        <time>2022-04-27T13:26:11Z</time>
      </trkpt>
      <trkpt lat="44.49765" lon="2.13957">
        <ele>390</ele>
        <time>2022-04-27T13:26:15Z</time>
      </trkpt>
      <trkpt lat="44.49762" lon="2.13954">
        <ele>389.4</ele>
        <time>2022-04-27T13:26:19Z</time>
      </trkpt>
      <trkpt lat="44.49761" lon="2.13952">
        <ele>389.4</ele>
        <time>2022-04-27T13:26:24Z</time>
      </trkpt>
      <trkpt lat="44.4976" lon="2.13951">
        <ele>389</ele>
        <time>2022-04-27T13:26:32Z</time>
      </trkpt>
      <trkpt lat="44.49759" lon="2.13947">
        <ele>387.6</ele>
        <time>2022-04-27T13:26:39Z</time>
      </trkpt>
      <trkpt lat="44.49759" lon="2.13943">
        <ele>386.6</ele>
        <time>2022-04-27T13:26:43Z</time>
      </trkpt>
      <trkpt lat="44.49759" lon="2.13941">
        <ele>385.8</ele>
        <time>2022-04-27T13:26:46Z</time>
      </trkpt>
      <trkpt lat="44.49759" lon="2.1394">
        <ele>385.4</ele>
        <time>2022-04-27T13:26:47Z</time>
      </trkpt>
      <trkpt lat="44.49759" lon="2.13939">
        <ele>384.4</ele>
        <time>2022-04-27T13:26:51Z</time>
      </trkpt>
      <trkpt lat="44.49759" lon="2.13939">
        <ele>384.2</ele>
        <time>2022-04-27T13:26:52Z</time>
      </trkpt>
      <trkpt lat="44.4976" lon="2.13936">
        <ele>383</ele>
        <time>2022-04-27T13:26:57Z</time>
      </trkpt>
      <trkpt lat="44.49762" lon="2.13932">
        <ele>381.8</ele>
        <time>2022-04-27T13:27:02Z</time>
      </trkpt>
      <trkpt lat="44.49762" lon="2.13931">
        <ele>381.6</ele>
        <time>2022-04-27T13:27:03Z</time>
      </trkpt>
      <trkpt lat="44.49766" lon="2.13923">
        <ele>380.6</ele>
        <time>2022-04-27T13:27:13Z</time>
      </trkpt>
      <trkpt lat="44.49767" lon="2.13919">
        <ele>379.2</ele>
        <time>2022-04-27T13:27:18Z</time>
      </trkpt>
      <trkpt lat="44.49768" lon="2.13917">
        <ele>378.8</ele>
        <time>2022-04-27T13:27:20Z</time>
      </trkpt>
      <trkpt lat="44.49768" lon="2.13916">
        <ele>377.8</ele>
        <time>2022-04-27T13:27:22Z</time>
      </trkpt>
      <trkpt lat="44.49767" lon="2.13911">
        <ele>376.8</ele>
        <time>2022-04-27T13:27:26Z</time>
      </trkpt>
      <trkpt lat="44.49768" lon="2.13909">
        <ele>376.6</ele>
        <time>2022-04-27T13:27:28Z</time>
      </trkpt>
      <trkpt lat="44.49777" lon="2.13903">
        <ele>375.8</ele>
        <time>2022-04-27T13:27:34Z</time>
      </trkpt>
      <trkpt lat="44.49777" lon="2.13902">
        <ele>375.6</ele>
        <time>2022-04-27T13:27:35Z</time>
      </trkpt>
      <trkpt lat="44.4978" lon="2.139">
        <ele>374.8</ele>
        <time>2022-04-27T13:27:38Z</time>
      </trkpt>
      <trkpt lat="44.49781" lon="2.13902">
        <ele>373.4</ele>
        <time>2022-04-27T13:27:43Z</time>
      </trkpt>
      <trkpt lat="44.49783" lon="2.13903">
        <ele>372.8</ele>
        <time>2022-04-27T13:27:46Z</time>
      </trkpt>
      <trkpt lat="44.49783" lon="2.13903">
        <ele>372.4</ele>
        <time>2022-04-27T13:27:47Z</time>
      </trkpt>
      <trkpt lat="44.49782" lon="2.13903">
        <ele>371.6</ele>
        <time>2022-04-27T13:27:51Z</time>
      </trkpt>
      <trkpt lat="44.49782" lon="2.13906">
        <ele>371.2</ele>
        <time>2022-04-27T13:27:53Z</time>
      </trkpt>
      <trkpt lat="44.49783" lon="2.13909">
        <ele>370</ele>
        <time>2022-04-27T13:27:58Z</time>
      </trkpt>
      <trkpt lat="44.49782" lon="2.13911">
        <ele>368.8</ele>
        <time>2022-04-27T13:28:03Z</time>
      </trkpt>
      <trkpt lat="44.49785" lon="2.13909">
        <ele>367.6</ele>
        <time>2022-04-27T13:28:06Z</time>
      </trkpt>
      <trkpt lat="44.49785" lon="2.13909">
        <ele>367.4</ele>
        <time>2022-04-27T13:28:07Z</time>
      </trkpt>
      <trkpt lat="44.49789" lon="2.13906">
        <ele>367.2</ele>
        <time>2022-04-27T13:28:11Z</time>
      </trkpt>
      <trkpt lat="44.49789" lon="2.13903">
        <ele>367.2</ele>
        <time>2022-04-27T13:28:13Z</time>
      </trkpt>
      <trkpt lat="44.49789" lon="2.139">
        <ele>367.4</ele>
        <time>2022-04-27T13:28:16Z</time>
      </trkpt>
      <trkpt lat="44.49793" lon="2.13898">
        <ele>367.8</ele>
        <time>2022-04-27T13:28:19Z</time>
      </trkpt>
      <trkpt lat="44.49795" lon="2.13898">
        <ele>368</ele>
        <time>2022-04-27T13:28:21Z</time>
      </trkpt>
      <trkpt lat="44.49799" lon="2.13901">
        <ele>368.2</ele>
        <time>2022-04-27T13:28:26Z</time>
      </trkpt>
      <trkpt lat="44.49799" lon="2.13901">
        <ele>368.4</ele>
        <time>2022-04-27T13:28:28Z</time>
      </trkpt>
      <trkpt lat="44.49799" lon="2.139">
        <ele>368.8</ele>
        <time>2022-04-27T13:28:34Z</time>
      </trkpt>
      <trkpt lat="44.49799" lon="2.13899">
        <ele>369</ele>
        <time>2022-04-27T13:28:42Z</time>
      </trkpt>
      <trkpt lat="44.49799" lon="2.13901">
        <ele>368.8</ele>
        <time>2022-04-27T13:29:03Z</time>
      </trkpt>
      <trkpt lat="44.49804" lon="2.13906">
        <ele>368.8</ele>
        <time>2022-04-27T13:29:23Z</time>
      </trkpt>
      <trkpt lat="44.49807" lon="2.13903">
        <ele>368.8</ele>
        <time>2022-04-27T13:29:42Z</time>
      </trkpt>
      <trkpt lat="44.49806" lon="2.13901">
        <ele>369</ele>
        <time>2022-04-27T13:29:48Z</time>
      </trkpt>
      <trkpt lat="44.498" lon="2.13898">
        <ele>368.6</ele>
        <time>2022-04-27T13:30:00Z</time>
      </trkpt>
      <trkpt lat="44.498" lon="2.13896">
        <ele>368.6</ele>
        <time>2022-04-27T13:30:17Z</time>
      </trkpt>
      <trkpt lat="44.49803" lon="2.13897">
        <ele>368.6</ele>
        <time>2022-04-27T13:30:30Z</time>
      </trkpt>
      <trkpt lat="44.49809" lon="2.13899">
        <ele>368.6</ele>
        <time>2022-04-27T13:30:44Z</time>
      </trkpt>
      <trkpt lat="44.4981" lon="2.13899">
        <ele>377</ele>
        <time>2022-04-27T13:30:55Z</time>
      </trkpt>
      <trkpt lat="44.4981" lon="2.13898">
        <ele>377</ele>
        <time>2022-04-27T13:30:56Z</time>
      </trkpt>
      <trkpt lat="44.49812" lon="2.13896">
        <ele>378</ele>
        <time>2022-04-27T13:31:07Z</time>
      </trkpt>
      <trkpt lat="44.49813" lon="2.13898">
        <ele>379.2</ele>
        <time>2022-04-27T13:31:13Z</time>
      </trkpt>
      <trkpt lat="44.49813" lon="2.139">
        <ele>380.4</ele>
        <time>2022-04-27T13:31:18Z</time>
      </trkpt>
      <trkpt lat="44.49813" lon="2.139">
        <ele>380.8</ele>
        <time>2022-04-27T13:31:20Z</time>
      </trkpt>
      <trkpt lat="44.49814" lon="2.13899">
        <ele>381.6</ele>
        <time>2022-04-27T13:31:26Z</time>
      </trkpt>
      <trkpt lat="44.49812" lon="2.13898">
        <ele>381.6</ele>
        <time>2022-04-27T13:31:35Z</time>
      </trkpt>
      <trkpt lat="44.49811" lon="2.13898">
        <ele>382</ele>
        <time>2022-04-27T13:31:56Z</time>
      </trkpt>
      <trkpt lat="44.49813" lon="2.13898">
        <ele>382.4</ele>
        <time>2022-04-27T13:32:06Z</time>
      </trkpt>
      <trkpt lat="44.49817" lon="2.13898">
        <ele>382.6</ele>
        <time>2022-04-27T13:32:19Z</time>
      </trkpt>
      <trkpt lat="44.49816" lon="2.13898">
        <ele>382.6</ele>
        <time>2022-04-27T13:32:20Z</time>
      </trkpt>
      <trkpt lat="44.49819" lon="2.13899">
        <ele>382.6</ele>
        <time>2022-04-27T13:32:30Z</time>
      </trkpt>
      <trkpt lat="44.49822" lon="2.139">
        <ele>382.8</ele>
        <time>2022-04-27T13:32:40Z</time>
      </trkpt>
      <trkpt lat="44.49828" lon="2.13895">
        <ele>382</ele>
        <time>2022-04-27T13:32:53Z</time>
      </trkpt>
      <trkpt lat="44.49831" lon="2.13893">
        <ele>382.8</ele>
        <time>2022-04-27T13:32:58Z</time>
      </trkpt>
      <trkpt lat="44.49834" lon="2.1389">
        <ele>383.8</ele>
        <time>2022-04-27T13:33:06Z</time>
      </trkpt>
      <trkpt lat="44.49836" lon="2.1389">
        <ele>383</ele>
        <time>2022-04-27T13:33:12Z</time>
      </trkpt>
      <trkpt lat="44.4983" lon="2.13893">
        <ele>382.8</ele>
        <time>2022-04-27T13:33:25Z</time>
      </trkpt>
      <trkpt lat="44.49828" lon="2.13894">
        <ele>382.8</ele>
        <time>2022-04-27T13:33:26Z</time>
      </trkpt>
      <trkpt lat="44.49826" lon="2.13894">
        <ele>382.6</ele>
        <time>2022-04-27T13:33:28Z</time>
      </trkpt>
      <trkpt lat="44.49827" lon="2.13893">
        <ele>383.8</ele>
        <time>2022-04-27T13:33:36Z</time>
      </trkpt>
      <trkpt lat="44.49827" lon="2.13893">
        <ele>383.8</ele>
        <time>2022-04-27T13:33:37Z</time>
      </trkpt>
      <trkpt lat="44.49828" lon="2.13894">
        <ele>383</ele>
        <time>2022-04-27T13:33:48Z</time>
      </trkpt>
      <trkpt lat="44.49828" lon="2.13894">
        <ele>382.8</ele>
        <time>2022-04-27T13:33:49Z</time>
      </trkpt>
      <trkpt lat="44.49826" lon="2.13897">
        <ele>382.4</ele>
        <time>2022-04-27T13:33:59Z</time>
      </trkpt>
      <trkpt lat="44.49823" lon="2.13898">
        <ele>382.6</ele>
        <time>2022-04-27T13:34:09Z</time>
      </trkpt>
      <trkpt lat="44.49824" lon="2.139">
        <ele>383.2</ele>
        <time>2022-04-27T13:34:23Z</time>
      </trkpt>
      <trkpt lat="44.49825" lon="2.13902">
        <ele>382.8</ele>
        <time>2022-04-27T13:34:39Z</time>
      </trkpt>
      <trkpt lat="44.49826" lon="2.13901">
        <ele>382.6</ele>
        <time>2022-04-27T13:34:52Z</time>
      </trkpt>
      <trkpt lat="44.49821" lon="2.139">
        <ele>382.4</ele>
        <time>2022-04-27T13:35:00Z</time>
      </trkpt>
      <trkpt lat="44.4982" lon="2.139">
        <ele>382.4</ele>
        <time>2022-04-27T13:35:02Z</time>
      </trkpt>
      <trkpt lat="44.49815" lon="2.13899">
        <ele>381.8</ele>
        <time>2022-04-27T13:35:13Z</time>
      </trkpt>
      <trkpt lat="44.49814" lon="2.13899">
        <ele>381.8</ele>
        <time>2022-04-27T13:35:15Z</time>
      </trkpt>
      <trkpt lat="44.49815" lon="2.13898">
        <ele>381.6</ele>
        <time>2022-04-27T13:35:25Z</time>
      </trkpt>
      <trkpt lat="44.4981" lon="2.139">
        <ele>382</ele>
        <time>2022-04-27T13:35:34Z</time>
      </trkpt>
      <trkpt lat="44.49812" lon="2.13894">
        <ele>382.2</ele>
        <time>2022-04-27T13:35:47Z</time>
      </trkpt>
      <trkpt lat="44.49815" lon="2.13898">
        <ele>381.6</ele>
        <time>2022-04-27T13:36:03Z</time>
      </trkpt>
      <trkpt lat="44.49812" lon="2.139">
        <ele>381.8</ele>
        <time>2022-04-27T13:36:15Z</time>
      </trkpt>
      <trkpt lat="44.49812" lon="2.139">
        <ele>380.6</ele>
        <time>2022-04-27T13:36:24Z</time>
      </trkpt>
      <trkpt lat="44.49812" lon="2.139">
        <ele>379.8</ele>
        <time>2022-04-27T13:36:30Z</time>
      </trkpt>
      <trkpt lat="44.49812" lon="2.139">
        <ele>379.4</ele>
        <time>2022-04-27T13:36:31Z</time>
      </trkpt>
      <trkpt lat="44.49811" lon="2.139">
        <ele>378.4</ele>
        <time>2022-04-27T13:36:39Z</time>
      </trkpt>
      <trkpt lat="44.49809" lon="2.139">
        <ele>377</ele>
        <time>2022-04-27T13:36:42Z</time>
      </trkpt>
      <trkpt lat="44.49809" lon="2.13899">
        <ele>377</ele>
        <time>2022-04-27T13:36:43Z</time>
      </trkpt>
      <trkpt lat="44.49807" lon="2.13897">
        <ele>376.8</ele>
        <time>2022-04-27T13:37:01Z</time>
      </trkpt>
      <trkpt lat="44.49807" lon="2.13897">
        <ele>376.4</ele>
        <time>2022-04-27T13:37:11Z</time>
      </trkpt>
      <trkpt lat="44.49808" lon="2.13898">
        <ele>376</ele>
        <time>2022-04-27T13:37:17Z</time>
      </trkpt>
      <trkpt lat="44.49808" lon="2.13899">
        <ele>374.6</ele>
        <time>2022-04-27T13:37:24Z</time>
      </trkpt>
      <trkpt lat="44.49809" lon="2.139">
        <ele>373.6</ele>
        <time>2022-04-27T13:37:27Z</time>
      </trkpt>
      <trkpt lat="44.49809" lon="2.139">
        <ele>373.4</ele>
        <time>2022-04-27T13:37:28Z</time>
      </trkpt>
      <trkpt lat="44.49807" lon="2.139">
        <ele>372.4</ele>
        <time>2022-04-27T13:37:35Z</time>
      </trkpt>
      <trkpt lat="44.49804" lon="2.13899">
        <ele>372.4</ele>
        <time>2022-04-27T13:37:39Z</time>
      </trkpt>
      <trkpt lat="44.49803" lon="2.13899">
        <ele>372.4</ele>
        <time>2022-04-27T13:37:40Z</time>
      </trkpt>
      <trkpt lat="44.49801" lon="2.13898">
        <ele>372</ele>
        <time>2022-04-27T13:37:42Z</time>
      </trkpt>
      <trkpt lat="44.498" lon="2.13899">
        <ele>371.8</ele>
        <time>2022-04-27T13:37:44Z</time>
      </trkpt>
      <trkpt lat="44.49799" lon="2.13899">
        <ele>371.6</ele>
        <time>2022-04-27T13:37:45Z</time>
      </trkpt>
      <trkpt lat="44.49798" lon="2.13898">
        <ele>371.4</ele>
        <time>2022-04-27T13:37:48Z</time>
      </trkpt>
      <trkpt lat="44.49798" lon="2.13898">
        <ele>371.2</ele>
        <time>2022-04-27T13:37:50Z</time>
      </trkpt>
      <trkpt lat="44.49798" lon="2.13899">
        <ele>368.8</ele>
        <time>2022-04-27T13:37:52Z</time>
      </trkpt>
      <trkpt lat="44.49795" lon="2.13901">
        <ele>367.8</ele>
        <time>2022-04-27T13:38:00Z</time>
      </trkpt>
      <trkpt lat="44.49794" lon="2.13901">
        <ele>367.6</ele>
        <time>2022-04-27T13:38:01Z</time>
      </trkpt>
      <trkpt lat="44.49794" lon="2.13901">
        <ele>367.4</ele>
        <time>2022-04-27T13:38:02Z</time>
      </trkpt>
      <trkpt lat="44.49792" lon="2.139">
        <ele>367.2</ele>
        <time>2022-04-27T13:38:04Z</time>
      </trkpt>
      <trkpt lat="44.49792" lon="2.13899">
        <ele>367.2</ele>
        <time>2022-04-27T13:38:07Z</time>
      </trkpt>
      <trkpt lat="44.4979" lon="2.13896">
        <ele>367.8</ele>
        <time>2022-04-27T13:38:11Z</time>
      </trkpt>
      <trkpt lat="44.4979" lon="2.13895">
        <ele>367.8</ele>
        <time>2022-04-27T13:38:12Z</time>
      </trkpt>
      <trkpt lat="44.49787" lon="2.1389">
        <ele>368.8</ele>
        <time>2022-04-27T13:38:17Z</time>
      </trkpt>
      <trkpt lat="44.49787" lon="2.13889">
        <ele>368.8</ele>
        <time>2022-04-27T13:38:18Z</time>
      </trkpt>
      <trkpt lat="44.49786" lon="2.13888">
        <ele>369</ele>
        <time>2022-04-27T13:38:21Z</time>
      </trkpt>
      <trkpt lat="44.49786" lon="2.13888">
        <ele>369</ele>
        <time>2022-04-27T13:38:22Z</time>
      </trkpt>
      <trkpt lat="44.49786" lon="2.13888">
        <ele>369</ele>
        <time>2022-04-27T13:38:24Z</time>
      </trkpt>
      <trkpt lat="44.49786" lon="2.1388">
        <ele>369.6</ele>
        <time>2022-04-27T13:38:32Z</time>
      </trkpt>
      <trkpt lat="44.49787" lon="2.13878">
        <ele>369.8</ele>
        <time>2022-04-27T13:38:34Z</time>
      </trkpt>
      <trkpt lat="44.49787" lon="2.13871">
        <ele>370.4</ele>
        <time>2022-04-27T13:38:39Z</time>
      </trkpt>
      <trkpt lat="44.49788" lon="2.13868">
        <ele>370.6</ele>
        <time>2022-04-27T13:38:41Z</time>
      </trkpt>
      <trkpt lat="44.49788" lon="2.13862">
        <ele>370.8</ele>
        <time>2022-04-27T13:38:46Z</time>
      </trkpt>
      <trkpt lat="44.49788" lon="2.1386">
        <ele>370.8</ele>
        <time>2022-04-27T13:38:48Z</time>
      </trkpt>
      <trkpt lat="44.49788" lon="2.1385">
        <ele>370.6</ele>
        <time>2022-04-27T13:38:58Z</time>
      </trkpt>
      <trkpt lat="44.49788" lon="2.1385">
        <ele>370.6</ele>
        <time>2022-04-27T13:38:59Z</time>
      </trkpt>
      <trkpt lat="44.49788" lon="2.13849">
        <ele>371</ele>
        <time>2022-04-27T13:39:02Z</time>
      </trkpt>
      <trkpt lat="44.49786" lon="2.13847">
        <ele>371</ele>
        <time>2022-04-27T13:39:05Z</time>
      </trkpt>
      <trkpt lat="44.49783" lon="2.13843">
        <ele>371.6</ele>
        <time>2022-04-27T13:39:11Z</time>
      </trkpt>
      <trkpt lat="44.4978" lon="2.13836">
        <ele>372.2</ele>
        <time>2022-04-27T13:39:19Z</time>
      </trkpt>
      <trkpt lat="44.49779" lon="2.13834">
        <ele>372.4</ele>
        <time>2022-04-27T13:39:21Z</time>
      </trkpt>
      <trkpt lat="44.49779" lon="2.1383">
        <ele>372.6</ele>
        <time>2022-04-27T13:39:24Z</time>
      </trkpt>
      <trkpt lat="44.49774" lon="2.13825">
        <ele>372.2</ele>
        <time>2022-04-27T13:39:36Z</time>
      </trkpt>
      <trkpt lat="44.49773" lon="2.13827">
        <ele>372.2</ele>
        <time>2022-04-27T13:39:39Z</time>
      </trkpt>
      <trkpt lat="44.49772" lon="2.13832">
        <ele>373.2</ele>
        <time>2022-04-27T13:39:45Z</time>
      </trkpt>
      <trkpt lat="44.49771" lon="2.13834">
        <ele>373.8</ele>
        <time>2022-04-27T13:39:47Z</time>
      </trkpt>
      <trkpt lat="44.49771" lon="2.13837">
        <ele>374.4</ele>
        <time>2022-04-27T13:39:49Z</time>
      </trkpt>
      <trkpt lat="44.4977" lon="2.13838">
        <ele>375</ele>
        <time>2022-04-27T13:39:51Z</time>
      </trkpt>
      <trkpt lat="44.49769" lon="2.1384">
        <ele>375.4</ele>
        <time>2022-04-27T13:39:53Z</time>
      </trkpt>
      <trkpt lat="44.49769" lon="2.13841">
        <ele>375.6</ele>
        <time>2022-04-27T13:39:54Z</time>
      </trkpt>
      <trkpt lat="44.49769" lon="2.13844">
        <ele>376.2</ele>
        <time>2022-04-27T13:39:56Z</time>
      </trkpt>
      <trkpt lat="44.49767" lon="2.13844">
        <ele>376.6</ele>
        <time>2022-04-27T13:39:58Z</time>
      </trkpt>
      <trkpt lat="44.49767" lon="2.13845">
        <ele>376.6</ele>
        <time>2022-04-27T13:39:59Z</time>
      </trkpt>
      <trkpt lat="44.49768" lon="2.1384">
        <ele>376.2</ele>
        <time>2022-04-27T13:40:07Z</time>
      </trkpt>
      <trkpt lat="44.49769" lon="2.13837">
        <ele>375.2</ele>
        <time>2022-04-27T13:40:10Z</time>
      </trkpt>
      <trkpt lat="44.49773" lon="2.13833">
        <ele>374.2</ele>
        <time>2022-04-27T13:40:16Z</time>
      </trkpt>
      <trkpt lat="44.49773" lon="2.1383">
        <ele>373</ele>
        <time>2022-04-27T13:40:20Z</time>
      </trkpt>
      <trkpt lat="44.4977" lon="2.13824">
        <ele>372</ele>
        <time>2022-04-27T13:40:25Z</time>
      </trkpt>
      <trkpt lat="44.49769" lon="2.13822">
        <ele>371</ele>
        <time>2022-04-27T13:40:27Z</time>
      </trkpt>
      <trkpt lat="44.49768" lon="2.1382">
        <ele>370.2</ele>
        <time>2022-04-27T13:40:31Z</time>
      </trkpt>
      <trkpt lat="44.49768" lon="2.13817">
        <ele>369.8</ele>
        <time>2022-04-27T13:40:35Z</time>
      </trkpt>
      <trkpt lat="44.49767" lon="2.13815">
        <ele>369.8</ele>
        <time>2022-04-27T13:40:42Z</time>
      </trkpt>
      <trkpt lat="44.49772" lon="2.13809">
        <ele>368.8</ele>
        <time>2022-04-27T13:40:53Z</time>
      </trkpt>
      <trkpt lat="44.49777" lon="2.13806">
        <ele>367.8</ele>
        <time>2022-04-27T13:41:00Z</time>
      </trkpt>
      <trkpt lat="44.49777" lon="2.13805">
        <ele>367.8</ele>
        <time>2022-04-27T13:41:01Z</time>
      </trkpt>
      <trkpt lat="44.49777" lon="2.13802">
        <ele>366.6</ele>
        <time>2022-04-27T13:41:05Z</time>
      </trkpt>
      <trkpt lat="44.49776" lon="2.13799">
        <ele>366</ele>
        <time>2022-04-27T13:41:08Z</time>
      </trkpt>
      <trkpt lat="44.49779" lon="2.13796">
        <ele>365.4</ele>
        <time>2022-04-27T13:41:11Z</time>
      </trkpt>
      <trkpt lat="44.49781" lon="2.13795">
        <ele>365</ele>
        <time>2022-04-27T13:41:12Z</time>
      </trkpt>
      <trkpt lat="44.49784" lon="2.13793">
        <ele>364.6</ele>
        <time>2022-04-27T13:41:15Z</time>
      </trkpt>
      <trkpt lat="44.49785" lon="2.13792">
        <ele>364.2</ele>
        <time>2022-04-27T13:41:17Z</time>
      </trkpt>
      <trkpt lat="44.49787" lon="2.1379">
        <ele>363.8</ele>
        <time>2022-04-27T13:41:19Z</time>
      </trkpt>
      <trkpt lat="44.4979" lon="2.13788">
        <ele>363</ele>
        <time>2022-04-27T13:41:24Z</time>
      </trkpt>
      <trkpt lat="44.49792" lon="2.13785">
        <ele>362</ele>
        <time>2022-04-27T13:41:29Z</time>
      </trkpt>
      <trkpt lat="44.49793" lon="2.13783">
        <ele>361.6</ele>
        <time>2022-04-27T13:41:31Z</time>
      </trkpt>
      <trkpt lat="44.49793" lon="2.13781">
        <ele>360.8</ele>
        <time>2022-04-27T13:41:34Z</time>
      </trkpt>
      <trkpt lat="44.49793" lon="2.1378">
        <ele>360.6</ele>
        <time>2022-04-27T13:41:35Z</time>
      </trkpt>
      <trkpt lat="44.49793" lon="2.13774">
        <ele>359.8</ele>
        <time>2022-04-27T13:41:40Z</time>
      </trkpt>
      <trkpt lat="44.49793" lon="2.13766">
        <ele>358.2</ele>
        <time>2022-04-27T13:41:47Z</time>
      </trkpt>
      <trkpt lat="44.49795" lon="2.13765">
        <ele>357.6</ele>
        <time>2022-04-27T13:41:49Z</time>
      </trkpt>
      <trkpt lat="44.49796" lon="2.13762">
        <ele>357</ele>
        <time>2022-04-27T13:41:53Z</time>
      </trkpt>
      <trkpt lat="44.49795" lon="2.13758">
        <ele>356</ele>
        <time>2022-04-27T13:41:58Z</time>
      </trkpt>
      <trkpt lat="44.49795" lon="2.13754">
        <ele>355</ele>
        <time>2022-04-27T13:42:03Z</time>
      </trkpt>
      <trkpt lat="44.498" lon="2.13751">
        <ele>353.6</ele>
        <time>2022-04-27T13:42:10Z</time>
      </trkpt>
      <trkpt lat="44.49802" lon="2.1375">
        <ele>352.6</ele>
        <time>2022-04-27T13:42:14Z</time>
      </trkpt>
      <trkpt lat="44.49803" lon="2.1375">
        <ele>352.2</ele>
        <time>2022-04-27T13:42:16Z</time>
      </trkpt>
      <trkpt lat="44.49806" lon="2.13748">
        <ele>351.4</ele>
        <time>2022-04-27T13:42:20Z</time>
      </trkpt>
      <trkpt lat="44.49808" lon="2.13746">
        <ele>350.4</ele>
        <time>2022-04-27T13:42:26Z</time>
      </trkpt>
      <trkpt lat="44.49809" lon="2.13744">
        <ele>350.4</ele>
        <time>2022-04-27T13:42:30Z</time>
      </trkpt>
      <trkpt lat="44.4981" lon="2.13738">
        <ele>349.4</ele>
        <time>2022-04-27T13:42:39Z</time>
      </trkpt>
      <trkpt lat="44.49811" lon="2.13735">
        <ele>348.4</ele>
        <time>2022-04-27T13:42:44Z</time>
      </trkpt>
      <trkpt lat="44.49815" lon="2.13732">
        <ele>347.2</ele>
        <time>2022-04-27T13:42:50Z</time>
      </trkpt>
      <trkpt lat="44.49812" lon="2.13727">
        <ele>346.4</ele>
        <time>2022-04-27T13:42:57Z</time>
      </trkpt>
      <trkpt lat="44.49811" lon="2.13719">
        <ele>346.8</ele>
        <time>2022-04-27T13:43:11Z</time>
      </trkpt>
      <trkpt lat="44.49812" lon="2.13727">
        <ele>346.2</ele>
        <time>2022-04-27T13:43:19Z</time>
      </trkpt>
      <trkpt lat="44.49814" lon="2.13726">
        <ele>346</ele>
        <time>2022-04-27T13:43:22Z</time>
      </trkpt>
      <trkpt lat="44.49817" lon="2.13723">
        <ele>345</ele>
        <time>2022-04-27T13:43:27Z</time>
      </trkpt>
      <trkpt lat="44.49819" lon="2.13721">
        <ele>344</ele>
        <time>2022-04-27T13:43:34Z</time>
      </trkpt>
      <trkpt lat="44.4982" lon="2.13721">
        <ele>343.8</ele>
        <time>2022-04-27T13:43:36Z</time>
      </trkpt>
      <trkpt lat="44.4982" lon="2.13716">
        <ele>342.8</ele>
        <time>2022-04-27T13:43:50Z</time>
      </trkpt>
      <trkpt lat="44.49819" lon="2.13715">
        <ele>342.8</ele>
        <time>2022-04-27T13:43:51Z</time>
      </trkpt>
      <trkpt lat="44.49817" lon="2.1371">
        <ele>342.4</ele>
        <time>2022-04-27T13:43:55Z</time>
      </trkpt>
      <trkpt lat="44.49815" lon="2.13707">
        <ele>341.8</ele>
        <time>2022-04-27T13:44:03Z</time>
      </trkpt>
      <trkpt lat="44.49814" lon="2.13708">
        <ele>341.8</ele>
        <time>2022-04-27T13:44:04Z</time>
      </trkpt>
      <trkpt lat="44.49808" lon="2.13708">
        <ele>342.4</ele>
        <time>2022-04-27T13:44:17Z</time>
      </trkpt>
      <trkpt lat="44.49805" lon="2.13707">
        <ele>343</ele>
        <time>2022-04-27T13:44:28Z</time>
      </trkpt>
      <trkpt lat="44.49805" lon="2.1371">
        <ele>343.2</ele>
        <time>2022-04-27T13:44:32Z</time>
      </trkpt>
      <trkpt lat="44.49806" lon="2.13713">
        <ele>344</ele>
        <time>2022-04-27T13:44:35Z</time>
      </trkpt>
      <trkpt lat="44.49808" lon="2.13716">
        <ele>345</ele>
        <time>2022-04-27T13:44:39Z</time>
      </trkpt>
      <trkpt lat="44.49809" lon="2.13716">
        <ele>345.2</ele>
        <time>2022-04-27T13:44:40Z</time>
      </trkpt>
      <trkpt lat="44.4981" lon="2.13716">
        <ele>345.4</ele>
        <time>2022-04-27T13:44:41Z</time>
      </trkpt>
      <trkpt lat="44.49811" lon="2.13718">
        <ele>345.6</ele>
        <time>2022-04-27T13:44:43Z</time>
      </trkpt>
      <trkpt lat="44.49811" lon="2.13718">
        <ele>345.8</ele>
        <time>2022-04-27T13:44:44Z</time>
      </trkpt>
      <trkpt lat="44.49815" lon="2.13719">
        <ele>346.2</ele>
        <time>2022-04-27T13:44:47Z</time>
      </trkpt>
      <trkpt lat="44.49816" lon="2.1372">
        <ele>346.2</ele>
        <time>2022-04-27T13:44:49Z</time>
      </trkpt>
      <trkpt lat="44.49819" lon="2.13721">
        <ele>345.8</ele>
        <time>2022-04-27T13:44:53Z</time>
      </trkpt>
      <trkpt lat="44.4982" lon="2.13721">
        <ele>345.6</ele>
        <time>2022-04-27T13:44:54Z</time>
      </trkpt>
      <trkpt lat="44.49822" lon="2.13722">
        <ele>345</ele>
        <time>2022-04-27T13:44:57Z</time>
      </trkpt>
      <trkpt lat="44.49824" lon="2.13727">
        <ele>344</ele>
        <time>2022-04-27T13:45:02Z</time>
      </trkpt>
      <trkpt lat="44.49824" lon="2.1373">
        <ele>343.8</ele>
        <time>2022-04-27T13:45:05Z</time>
      </trkpt>
      <trkpt lat="44.49824" lon="2.13734">
        <ele>343</ele>
        <time>2022-04-27T13:45:09Z</time>
      </trkpt>
      <trkpt lat="44.49824" lon="2.13736">
        <ele>342.6</ele>
        <time>2022-04-27T13:45:11Z</time>
      </trkpt>
      <trkpt lat="44.49824" lon="2.13738">
        <ele>342.4</ele>
        <time>2022-04-27T13:45:13Z</time>
      </trkpt>
      <trkpt lat="44.49824" lon="2.13741">
        <ele>342.2</ele>
        <time>2022-04-27T13:45:17Z</time>
      </trkpt>
      <trkpt lat="44.49823" lon="2.13741">
        <ele>342</ele>
        <time>2022-04-27T13:45:18Z</time>
      </trkpt>
      <trkpt lat="44.49823" lon="2.13742">
        <ele>341.8</ele>
        <time>2022-04-27T13:45:19Z</time>
      </trkpt>
      <trkpt lat="44.49823" lon="2.13744">
        <ele>341.4</ele>
        <time>2022-04-27T13:45:22Z</time>
      </trkpt>
      <trkpt lat="44.49825" lon="2.13746">
        <ele>340.8</ele>
        <time>2022-04-27T13:45:28Z</time>
      </trkpt>
      <trkpt lat="44.49828" lon="2.13754">
        <ele>340</ele>
        <time>2022-04-27T13:45:34Z</time>
      </trkpt>
      <trkpt lat="44.49828" lon="2.13755">
        <ele>339.8</ele>
        <time>2022-04-27T13:45:35Z</time>
      </trkpt>
      <trkpt lat="44.49828" lon="2.13757">
        <ele>339.6</ele>
        <time>2022-04-27T13:45:36Z</time>
      </trkpt>
      <trkpt lat="44.49829" lon="2.1376">
        <ele>339.4</ele>
        <time>2022-04-27T13:45:38Z</time>
      </trkpt>
      <trkpt lat="44.49829" lon="2.13761">
        <ele>339.2</ele>
        <time>2022-04-27T13:45:39Z</time>
      </trkpt>
      <trkpt lat="44.4983" lon="2.13763">
        <ele>339.2</ele>
        <time>2022-04-27T13:45:40Z</time>
      </trkpt>
      <trkpt lat="44.4983" lon="2.13764">
        <ele>338.8</ele>
        <time>2022-04-27T13:45:48Z</time>
      </trkpt>
      <trkpt lat="44.49833" lon="2.13765">
        <ele>339</ele>
        <time>2022-04-27T13:46:07Z</time>
      </trkpt>
      <trkpt lat="44.49833" lon="2.13768">
        <ele>338.8</ele>
        <time>2022-04-27T13:46:22Z</time>
      </trkpt>
      <trkpt lat="44.49831" lon="2.13771">
        <ele>338.6</ele>
        <time>2022-04-27T13:46:29Z</time>
      </trkpt>
      <trkpt lat="44.49829" lon="2.13773">
        <ele>337.4</ele>
        <time>2022-04-27T13:46:38Z</time>
      </trkpt>
      <trkpt lat="44.49829" lon="2.1378">
        <ele>337.4</ele>
        <time>2022-04-27T13:46:51Z</time>
      </trkpt>
      <trkpt lat="44.49829" lon="2.13784">
        <ele>336.6</ele>
        <time>2022-04-27T13:46:56Z</time>
      </trkpt>
      <trkpt lat="44.49829" lon="2.13786">
        <ele>336.2</ele>
        <time>2022-04-27T13:46:58Z</time>
      </trkpt>
      <trkpt lat="44.4983" lon="2.13787">
        <ele>336</ele>
        <time>2022-04-27T13:47:00Z</time>
      </trkpt>
      <trkpt lat="44.49829" lon="2.13789">
        <ele>335.4</ele>
        <time>2022-04-27T13:47:03Z</time>
      </trkpt>
      <trkpt lat="44.49829" lon="2.13791">
        <ele>335.2</ele>
        <time>2022-04-27T13:47:05Z</time>
      </trkpt>
      <trkpt lat="44.49829" lon="2.13793">
        <ele>334.8</ele>
        <time>2022-04-27T13:47:07Z</time>
      </trkpt>
      <trkpt lat="44.4983" lon="2.13798">
        <ele>334.4</ele>
        <time>2022-04-27T13:47:10Z</time>
      </trkpt>
      <trkpt lat="44.4983" lon="2.13799">
        <ele>334.2</ele>
        <time>2022-04-27T13:47:11Z</time>
      </trkpt>
      <trkpt lat="44.49829" lon="2.13807">
        <ele>333.2</ele>
        <time>2022-04-27T13:47:19Z</time>
      </trkpt>
      <trkpt lat="44.49829" lon="2.13808">
        <ele>333</ele>
        <time>2022-04-27T13:47:20Z</time>
      </trkpt>
      <trkpt lat="44.49829" lon="2.13808">
        <ele>333</ele>
        <time>2022-04-27T13:47:21Z</time>
      </trkpt>
      <trkpt lat="44.49829" lon="2.13809">
        <ele>332.8</ele>
        <time>2022-04-27T13:47:24Z</time>
      </trkpt>
      <trkpt lat="44.4983" lon="2.13812">
        <ele>333</ele>
        <time>2022-04-27T13:47:32Z</time>
      </trkpt>
      <trkpt lat="44.49824" lon="2.13813">
        <ele>333.2</ele>
        <time>2022-04-27T13:47:47Z</time>
      </trkpt>
      <trkpt lat="44.49824" lon="2.13812">
        <ele>332.6</ele>
        <time>2022-04-27T13:48:07Z</time>
      </trkpt>
      <trkpt lat="44.49825" lon="2.13813">
        <ele>332.4</ele>
        <time>2022-04-27T13:48:25Z</time>
      </trkpt>
      <trkpt lat="44.49825" lon="2.13813">
        <ele>332</ele>
        <time>2022-04-27T13:48:26Z</time>
      </trkpt>
      <trkpt lat="44.49823" lon="2.13817">
        <ele>331</ele>
        <time>2022-04-27T13:48:32Z</time>
      </trkpt>
      <trkpt lat="44.49822" lon="2.13819">
        <ele>330.4</ele>
        <time>2022-04-27T13:48:36Z</time>
      </trkpt>
      <trkpt lat="44.49825" lon="2.13821">
        <ele>330</ele>
        <time>2022-04-27T13:48:52Z</time>
      </trkpt>
      <trkpt lat="44.49827" lon="2.13821">
        <ele>330</ele>
        <time>2022-04-27T13:48:58Z</time>
      </trkpt>
      <trkpt lat="44.49829" lon="2.13824">
        <ele>329.4</ele>
        <time>2022-04-27T13:49:04Z</time>
      </trkpt>
      <trkpt lat="44.49831" lon="2.13827">
        <ele>329</ele>
        <time>2022-04-27T13:49:08Z</time>
      </trkpt>
      <trkpt lat="44.49832" lon="2.13828">
        <ele>328.8</ele>
        <time>2022-04-27T13:49:09Z</time>
      </trkpt>
      <trkpt lat="44.49833" lon="2.13831">
        <ele>328.8</ele>
        <time>2022-04-27T13:49:18Z</time>
      </trkpt>
      <trkpt lat="44.49837" lon="2.13838">
        <ele>328.8</ele>
        <time>2022-04-27T13:49:27Z</time>
      </trkpt>
      <trkpt lat="44.49838" lon="2.13839">
        <ele>328.8</ele>
        <time>2022-04-27T13:49:31Z</time>
      </trkpt>
      <trkpt lat="44.49837" lon="2.13847">
        <ele>327.8</ele>
        <time>2022-04-27T13:49:45Z</time>
      </trkpt>
      <trkpt lat="44.49839" lon="2.13853">
        <ele>328.2</ele>
        <time>2022-04-27T13:49:59Z</time>
      </trkpt>
      <trkpt lat="44.49847" lon="2.13855">
        <ele>328.2</ele>
        <time>2022-04-27T13:50:13Z</time>
      </trkpt>
      <trkpt lat="44.49849" lon="2.13853">
        <ele>328.8</ele>
        <time>2022-04-27T13:50:27Z</time>
      </trkpt>
      <trkpt lat="44.49849" lon="2.13852">
        <ele>328.8</ele>
        <time>2022-04-27T13:50:33Z</time>
      </trkpt>
      <trkpt lat="44.4985" lon="2.13852">
        <ele>329.2</ele>
        <time>2022-04-27T13:50:40Z</time>
      </trkpt>
      <trkpt lat="44.49844" lon="2.13856">
        <ele>328</ele>
        <time>2022-04-27T13:50:53Z</time>
      </trkpt>
      <trkpt lat="44.49839" lon="2.13852">
        <ele>328</ele>
        <time>2022-04-27T13:51:05Z</time>
      </trkpt>
      <trkpt lat="44.49838" lon="2.13853">
        <ele>328</ele>
        <time>2022-04-27T13:51:17Z</time>
      </trkpt>
      <trkpt lat="44.49837" lon="2.13863">
        <ele>328</ele>
        <time>2022-04-27T13:51:28Z</time>
      </trkpt>
      <trkpt lat="44.49837" lon="2.13864">
        <ele>328</ele>
        <time>2022-04-27T13:51:30Z</time>
      </trkpt>
      <trkpt lat="44.49833" lon="2.13859">
        <ele>327.8</ele>
        <time>2022-04-27T13:51:55Z</time>
      </trkpt>
      <trkpt lat="44.49833" lon="2.13857">
        <ele>327.6</ele>
        <time>2022-04-27T13:51:57Z</time>
      </trkpt>
      <trkpt lat="44.49833" lon="2.13849">
        <ele>327.2</ele>
        <time>2022-04-27T13:52:04Z</time>
      </trkpt>
      <trkpt lat="44.49832" lon="2.13847">
        <ele>327.4</ele>
        <time>2022-04-27T13:52:06Z</time>
      </trkpt>
      <trkpt lat="44.49831" lon="2.13842">
        <ele>327.4</ele>
        <time>2022-04-27T13:52:11Z</time>
      </trkpt>
      <trkpt lat="44.4983" lon="2.13839">
        <ele>327.2</ele>
        <time>2022-04-27T13:52:13Z</time>
      </trkpt>
      <trkpt lat="44.49824" lon="2.13836">
        <ele>327.6</ele>
        <time>2022-04-27T13:52:22Z</time>
      </trkpt>
      <trkpt lat="44.49827" lon="2.13836">
        <ele>327.6</ele>
        <time>2022-04-27T13:52:25Z</time>
      </trkpt>
      <trkpt lat="44.49828" lon="2.13835">
        <ele>327.6</ele>
        <time>2022-04-27T13:52:26Z</time>
      </trkpt>
      <trkpt lat="44.49829" lon="2.13834">
        <ele>327.6</ele>
        <time>2022-04-27T13:52:28Z</time>
      </trkpt>
      <trkpt lat="44.49831" lon="2.13833">
        <ele>327.6</ele>
        <time>2022-04-27T13:52:30Z</time>
      </trkpt>
      <trkpt lat="44.4983" lon="2.13829">
        <ele>327.4</ele>
        <time>2022-04-27T13:52:33Z</time>
      </trkpt>
      <trkpt lat="44.4983" lon="2.13826">
        <ele>327.2</ele>
        <time>2022-04-27T13:52:37Z</time>
      </trkpt>
      <trkpt lat="44.4983" lon="2.13821">
        <ele>327.6</ele>
        <time>2022-04-27T13:52:42Z</time>
      </trkpt>
      <trkpt lat="44.49832" lon="2.13819">
        <ele>328</ele>
        <time>2022-04-27T13:52:46Z</time>
      </trkpt>
      <trkpt lat="44.4983" lon="2.13818">
        <ele>328.4</ele>
        <time>2022-04-27T13:52:48Z</time>
      </trkpt>
      <trkpt lat="44.4983" lon="2.13817">
        <ele>328.6</ele>
        <time>2022-04-27T13:52:49Z</time>
      </trkpt>
      <trkpt lat="44.4983" lon="2.13815">
        <ele>329</ele>
        <time>2022-04-27T13:52:51Z</time>
      </trkpt>
      <trkpt lat="44.49832" lon="2.13811">
        <ele>329.6</ele>
        <time>2022-04-27T13:52:56Z</time>
      </trkpt>
      <trkpt lat="44.49832" lon="2.1381">
        <ele>329.4</ele>
        <time>2022-04-27T13:52:58Z</time>
      </trkpt>
      <trkpt lat="44.49832" lon="2.13808">
        <ele>329.2</ele>
        <time>2022-04-27T13:53:00Z</time>
      </trkpt>
      <trkpt lat="44.49831" lon="2.13803">
        <ele>329</ele>
        <time>2022-04-27T13:53:03Z</time>
      </trkpt>
      <trkpt lat="44.49832" lon="2.13801">
        <ele>328.8</ele>
        <time>2022-04-27T13:53:05Z</time>
      </trkpt>
      <trkpt lat="44.49833" lon="2.13795">
        <ele>328</ele>
        <time>2022-04-27T13:53:11Z</time>
      </trkpt>
      <trkpt lat="44.49833" lon="2.13795">
        <ele>327.8</ele>
        <time>2022-04-27T13:53:12Z</time>
      </trkpt>
      <trkpt lat="44.49833" lon="2.13794">
        <ele>327.6</ele>
        <time>2022-04-27T13:53:13Z</time>
      </trkpt>
      <trkpt lat="44.49833" lon="2.13794">
        <ele>327.4</ele>
        <time>2022-04-27T13:53:14Z</time>
      </trkpt>
      <trkpt lat="44.49834" lon="2.13795">
        <ele>327.2</ele>
        <time>2022-04-27T13:53:15Z</time>
      </trkpt>
      <trkpt lat="44.49837" lon="2.13797">
        <ele>326.8</ele>
        <time>2022-04-27T13:53:18Z</time>
      </trkpt>
      <trkpt lat="44.49839" lon="2.13798">
        <ele>326.6</ele>
        <time>2022-04-27T13:53:20Z</time>
      </trkpt>
      <trkpt lat="44.4984" lon="2.13799">
        <ele>326.2</ele>
        <time>2022-04-27T13:53:22Z</time>
      </trkpt>
      <trkpt lat="44.49841" lon="2.138">
        <ele>325.8</ele>
        <time>2022-04-27T13:53:25Z</time>
      </trkpt>
      <trkpt lat="44.49841" lon="2.13801">
        <ele>325.6</ele>
        <time>2022-04-27T13:53:26Z</time>
      </trkpt>
      <trkpt lat="44.49841" lon="2.13803">
        <ele>325.2</ele>
        <time>2022-04-27T13:53:29Z</time>
      </trkpt>
      <trkpt lat="44.49841" lon="2.13805">
        <ele>325</ele>
        <time>2022-04-27T13:53:31Z</time>
      </trkpt>
      <trkpt lat="44.4984" lon="2.13806">
        <ele>324.8</ele>
        <time>2022-04-27T13:53:33Z</time>
      </trkpt>
      <trkpt lat="44.49842" lon="2.13807">
        <ele>324.4</ele>
        <time>2022-04-27T13:53:35Z</time>
      </trkpt>
      <trkpt lat="44.49842" lon="2.1381">
        <ele>324</ele>
        <time>2022-04-27T13:53:38Z</time>
      </trkpt>
      <trkpt lat="44.49842" lon="2.13811">
        <ele>323.6</ele>
        <time>2022-04-27T13:53:39Z</time>
      </trkpt>
      <trkpt lat="44.49844" lon="2.13817">
        <ele>322.6</ele>
        <time>2022-04-27T13:53:47Z</time>
      </trkpt>
      <trkpt lat="44.49846" lon="2.13823">
        <ele>322.2</ele>
        <time>2022-04-27T13:53:55Z</time>
      </trkpt>
      <trkpt lat="44.49846" lon="2.13828">
        <ele>321.4</ele>
        <time>2022-04-27T13:53:59Z</time>
      </trkpt>
      <trkpt lat="44.49846" lon="2.13831">
        <ele>320.4</ele>
        <time>2022-04-27T13:54:05Z</time>
      </trkpt>
      <trkpt lat="44.49848" lon="2.13834">
        <ele>320</ele>
        <time>2022-04-27T13:54:08Z</time>
      </trkpt>
      <trkpt lat="44.4985" lon="2.13836">
        <ele>319.8</ele>
        <time>2022-04-27T13:54:10Z</time>
      </trkpt>
      <trkpt lat="44.49853" lon="2.13836">
        <ele>319.4</ele>
        <time>2022-04-27T13:54:12Z</time>
      </trkpt>
      <trkpt lat="44.49857" lon="2.13835">
        <ele>319.4</ele>
        <time>2022-04-27T13:54:14Z</time>
      </trkpt>
      <trkpt lat="44.49859" lon="2.13834">
        <ele>319.4</ele>
        <time>2022-04-27T13:54:15Z</time>
      </trkpt>
      <trkpt lat="44.49862" lon="2.13834">
        <ele>319.4</ele>
        <time>2022-04-27T13:54:17Z</time>
      </trkpt>
      <trkpt lat="44.49861" lon="2.13836">
        <ele>319.2</ele>
        <time>2022-04-27T13:54:19Z</time>
      </trkpt>
      <trkpt lat="44.49861" lon="2.13837">
        <ele>319</ele>
        <time>2022-04-27T13:54:20Z</time>
      </trkpt>
      <trkpt lat="44.49861" lon="2.13838">
        <ele>318.8</ele>
        <time>2022-04-27T13:54:22Z</time>
      </trkpt>
      <trkpt lat="44.49861" lon="2.13843">
        <ele>318.2</ele>
        <time>2022-04-27T13:54:33Z</time>
      </trkpt>
      <trkpt lat="44.4986" lon="2.13844">
        <ele>317.6</ele>
        <time>2022-04-27T13:54:36Z</time>
      </trkpt>
      <trkpt lat="44.49859" lon="2.13844">
        <ele>317</ele>
        <time>2022-04-27T13:54:39Z</time>
      </trkpt>
      <trkpt lat="44.4986" lon="2.13838">
        <ele>316.6</ele>
        <time>2022-04-27T13:54:54Z</time>
      </trkpt>
      <trkpt lat="44.49856" lon="2.13831">
        <ele>316</ele>
        <time>2022-04-27T13:55:03Z</time>
      </trkpt>
      <trkpt lat="44.49856" lon="2.13828">
        <ele>315.4</ele>
        <time>2022-04-27T13:55:07Z</time>
      </trkpt>
      <trkpt lat="44.49857" lon="2.13821">
        <ele>314.8</ele>
        <time>2022-04-27T13:55:17Z</time>
      </trkpt>
      <trkpt lat="44.49858" lon="2.13819">
        <ele>314.4</ele>
        <time>2022-04-27T13:55:19Z</time>
      </trkpt>
      <trkpt lat="44.49859" lon="2.13817">
        <ele>313.8</ele>
        <time>2022-04-27T13:55:22Z</time>
      </trkpt>
      <trkpt lat="44.4986" lon="2.13815">
        <ele>313.4</ele>
        <time>2022-04-27T13:55:24Z</time>
      </trkpt>
      <trkpt lat="44.49862" lon="2.13813">
        <ele>312.4</ele>
        <time>2022-04-27T13:55:28Z</time>
      </trkpt>
      <trkpt lat="44.49864" lon="2.13808">
        <ele>311.4</ele>
        <time>2022-04-27T13:55:34Z</time>
      </trkpt>
      <trkpt lat="44.49867" lon="2.13803">
        <ele>310.4</ele>
        <time>2022-04-27T13:55:39Z</time>
      </trkpt>
      <trkpt lat="44.49868" lon="2.138">
        <ele>310</ele>
        <time>2022-04-27T13:55:42Z</time>
      </trkpt>
      <trkpt lat="44.49869" lon="2.13797">
        <ele>309.2</ele>
        <time>2022-04-27T13:55:45Z</time>
      </trkpt>
      <trkpt lat="44.49869" lon="2.13796">
        <ele>309</ele>
        <time>2022-04-27T13:55:46Z</time>
      </trkpt>
      <trkpt lat="44.49868" lon="2.13794">
        <ele>308.6</ele>
        <time>2022-04-27T13:55:48Z</time>
      </trkpt>
      <trkpt lat="44.49868" lon="2.13791">
        <ele>308.2</ele>
        <time>2022-04-27T13:55:51Z</time>
      </trkpt>
      <trkpt lat="44.49869" lon="2.13787">
        <ele>307</ele>
        <time>2022-04-27T13:55:56Z</time>
      </trkpt>
      <trkpt lat="44.49869" lon="2.13787">
        <ele>306</ele>
        <time>2022-04-27T13:56:03Z</time>
      </trkpt>
      <trkpt lat="44.49869" lon="2.13788">
        <ele>305.6</ele>
        <time>2022-04-27T13:56:06Z</time>
      </trkpt>
      <trkpt lat="44.4987" lon="2.1379">
        <ele>304.8</ele>
        <time>2022-04-27T13:56:09Z</time>
      </trkpt>
      <trkpt lat="44.49871" lon="2.13798">
        <ele>303.8</ele>
        <time>2022-04-27T13:56:15Z</time>
      </trkpt>
      <trkpt lat="44.49871" lon="2.138">
        <ele>303.4</ele>
        <time>2022-04-27T13:56:17Z</time>
      </trkpt>
      <trkpt lat="44.49871" lon="2.13803">
        <ele>303.2</ele>
        <time>2022-04-27T13:56:20Z</time>
      </trkpt>
      <trkpt lat="44.49871" lon="2.13804">
        <ele>303</ele>
        <time>2022-04-27T13:56:21Z</time>
      </trkpt>
      <trkpt lat="44.4987" lon="2.13806">
        <ele>302.8</ele>
        <time>2022-04-27T13:56:23Z</time>
      </trkpt>
      <trkpt lat="44.4987" lon="2.13807">
        <ele>302.8</ele>
        <time>2022-04-27T13:56:24Z</time>
      </trkpt>
      <trkpt lat="44.49871" lon="2.13814">
        <ele>301.6</ele>
        <time>2022-04-27T13:56:35Z</time>
      </trkpt>
      <trkpt lat="44.49871" lon="2.13814">
        <ele>301.6</ele>
        <time>2022-04-27T13:56:36Z</time>
      </trkpt>
      <trkpt lat="44.49867" lon="2.13818">
        <ele>302.8</ele>
        <time>2022-04-27T13:56:48Z</time>
      </trkpt>
      <trkpt lat="44.49866" lon="2.13818">
        <ele>302.8</ele>
        <time>2022-04-27T13:56:51Z</time>
      </trkpt>
      <trkpt lat="44.49865" lon="2.13818">
        <ele>301.6</ele>
        <time>2022-04-27T13:56:55Z</time>
      </trkpt>
      <trkpt lat="44.4987" lon="2.13815">
        <ele>300.2</ele>
        <time>2022-04-27T13:57:04Z</time>
      </trkpt>
      <trkpt lat="44.49872" lon="2.13813">
        <ele>299.6</ele>
        <time>2022-04-27T13:57:07Z</time>
      </trkpt>
      <trkpt lat="44.49873" lon="2.13812">
        <ele>299</ele>
        <time>2022-04-27T13:57:10Z</time>
      </trkpt>
      <trkpt lat="44.49875" lon="2.13815">
        <ele>298</ele>
        <time>2022-04-27T13:57:14Z</time>
      </trkpt>
      <trkpt lat="44.49876" lon="2.13817">
        <ele>297.8</ele>
        <time>2022-04-27T13:57:16Z</time>
      </trkpt>
      <trkpt lat="44.49878" lon="2.13818">
        <ele>296.8</ele>
        <time>2022-04-27T13:57:21Z</time>
      </trkpt>
      <trkpt lat="44.4988" lon="2.13819">
        <ele>295.6</ele>
        <time>2022-04-27T13:57:25Z</time>
      </trkpt>
      <trkpt lat="44.49884" lon="2.1382">
        <ele>294.8</ele>
        <time>2022-04-27T13:57:31Z</time>
      </trkpt>
      <trkpt lat="44.49885" lon="2.1382">
        <ele>294.6</ele>
        <time>2022-04-27T13:57:32Z</time>
      </trkpt>
      <trkpt lat="44.49884" lon="2.13814">
        <ele>293.4</ele>
        <time>2022-04-27T13:57:37Z</time>
      </trkpt>
      <trkpt lat="44.49887" lon="2.13815">
        <ele>292.4</ele>
        <time>2022-04-27T13:57:42Z</time>
      </trkpt>
      <trkpt lat="44.49887" lon="2.13815">
        <ele>292</ele>
        <time>2022-04-27T13:57:44Z</time>
      </trkpt>
      <trkpt lat="44.49892" lon="2.13818">
        <ele>291.2</ele>
        <time>2022-04-27T13:57:49Z</time>
      </trkpt>
      <trkpt lat="44.49893" lon="2.13824">
        <ele>290.4</ele>
        <time>2022-04-27T13:57:55Z</time>
      </trkpt>
      <trkpt lat="44.49891" lon="2.13827">
        <ele>290.2</ele>
        <time>2022-04-27T13:58:03Z</time>
      </trkpt>
      <trkpt lat="44.4989" lon="2.13828">
        <ele>290.4</ele>
        <time>2022-04-27T13:58:07Z</time>
      </trkpt>
      <trkpt lat="44.49891" lon="2.13831">
        <ele>290</ele>
        <time>2022-04-27T13:58:19Z</time>
      </trkpt>
      <trkpt lat="44.49886" lon="2.13832">
        <ele>290.2</ele>
        <time>2022-04-27T13:58:36Z</time>
      </trkpt>
      <trkpt lat="44.49886" lon="2.13832">
        <ele>291.2</ele>
        <time>2022-04-27T13:58:47Z</time>
      </trkpt>
      <trkpt lat="44.49878" lon="2.13836">
        <ele>291.2</ele>
        <time>2022-04-27T13:59:01Z</time>
      </trkpt>
      <trkpt lat="44.49878" lon="2.13836">
        <ele>290.2</ele>
        <time>2022-04-27T13:59:32Z</time>
      </trkpt>
      <trkpt lat="44.49879" lon="2.13837">
        <ele>290.4</ele>
        <time>2022-04-27T13:59:39Z</time>
      </trkpt>
      <trkpt lat="44.49881" lon="2.13839">
        <ele>289.8</ele>
        <time>2022-04-27T13:59:51Z</time>
      </trkpt>
      <trkpt lat="44.49889" lon="2.13822">
        <ele>289.2</ele>
        <time>2022-04-27T14:00:01Z</time>
      </trkpt>
      <trkpt lat="44.49891" lon="2.13821">
        <ele>289.2</ele>
        <time>2022-04-27T14:00:02Z</time>
      </trkpt>
      <trkpt lat="44.49892" lon="2.13819">
        <ele>289</ele>
        <time>2022-04-27T14:00:04Z</time>
      </trkpt>
      <trkpt lat="44.49896" lon="2.13814">
        <ele>288.4</ele>
        <time>2022-04-27T14:00:17Z</time>
      </trkpt>
      <trkpt lat="44.49899" lon="2.13811">
        <ele>288.2</ele>
        <time>2022-04-27T14:00:31Z</time>
      </trkpt>
      <trkpt lat="44.499" lon="2.13809">
        <ele>288.2</ele>
        <time>2022-04-27T14:00:33Z</time>
      </trkpt>
      <trkpt lat="44.49897" lon="2.13791">
        <ele>287.4</ele>
        <time>2022-04-27T14:00:49Z</time>
      </trkpt>
      <trkpt lat="44.49896" lon="2.13784">
        <ele>287.4</ele>
        <time>2022-04-27T14:00:53Z</time>
      </trkpt>
      <trkpt lat="44.49894" lon="2.1377">
        <ele>287.4</ele>
        <time>2022-04-27T14:01:05Z</time>
      </trkpt>
      <trkpt lat="44.49894" lon="2.13768">
        <ele>287.2</ele>
        <time>2022-04-27T14:01:07Z</time>
      </trkpt>
      <trkpt lat="44.49896" lon="2.13751">
        <ele>287.6</ele>
        <time>2022-04-27T14:01:23Z</time>
      </trkpt>
      <trkpt lat="44.49897" lon="2.13748">
        <ele>287.6</ele>
        <time>2022-04-27T14:01:26Z</time>
      </trkpt>
      <trkpt lat="44.49897" lon="2.13728">
        <ele>288</ele>
        <time>2022-04-27T14:01:41Z</time>
      </trkpt>
      <trkpt lat="44.49899" lon="2.13723">
        <ele>288</ele>
        <time>2022-04-27T14:01:44Z</time>
      </trkpt>
      <trkpt lat="44.49902" lon="2.13714">
        <ele>287.6</ele>
        <time>2022-04-27T14:01:50Z</time>
      </trkpt>
      <trkpt lat="44.49905" lon="2.13711">
        <ele>287.4</ele>
        <time>2022-04-27T14:01:53Z</time>
      </trkpt>
      <trkpt lat="44.49907" lon="2.13709">
        <ele>287.4</ele>
        <time>2022-04-27T14:01:55Z</time>
      </trkpt>
      <trkpt lat="44.4991" lon="2.13705">
        <ele>287.4</ele>
        <time>2022-04-27T14:01:59Z</time>
      </trkpt>
      <trkpt lat="44.49911" lon="2.13698">
        <ele>287</ele>
        <time>2022-04-27T14:02:04Z</time>
      </trkpt>
      <trkpt lat="44.4991" lon="2.13694">
        <ele>287.2</ele>
        <time>2022-04-27T14:02:10Z</time>
      </trkpt>
      <trkpt lat="44.49912" lon="2.13693">
        <ele>287.4</ele>
        <time>2022-04-27T14:02:14Z</time>
      </trkpt>
      <trkpt lat="44.49912" lon="2.13694">
        <ele>287.6</ele>
        <time>2022-04-27T14:02:18Z</time>
      </trkpt>
      <trkpt lat="44.49912" lon="2.13694">
        <ele>287.8</ele>
        <time>2022-04-27T14:02:21Z</time>
      </trkpt>
      <trkpt lat="44.4991" lon="2.13695">
        <ele>288</ele>
        <time>2022-04-27T14:02:34Z</time>
      </trkpt>
      <trkpt lat="44.49907" lon="2.13702">
        <ele>288</ele>
        <time>2022-04-27T14:02:47Z</time>
      </trkpt>
      <trkpt lat="44.49902" lon="2.13707">
        <ele>288.2</ele>
        <time>2022-04-27T14:02:58Z</time>
      </trkpt>
      <trkpt lat="44.49903" lon="2.1371">
        <ele>287.4</ele>
        <time>2022-04-27T14:03:12Z</time>
      </trkpt>
      <trkpt lat="44.49905" lon="2.13711">
        <ele>287.2</ele>
        <time>2022-04-27T14:03:15Z</time>
      </trkpt>
      <trkpt lat="44.49912" lon="2.13711">
        <ele>286.2</ele>
        <time>2022-04-27T14:03:25Z</time>
      </trkpt>
      <trkpt lat="44.49913" lon="2.1371">
        <ele>286.2</ele>
        <time>2022-04-27T14:03:27Z</time>
      </trkpt>
      <trkpt lat="44.4991" lon="2.13707">
        <ele>287.4</ele>
        <time>2022-04-27T14:03:36Z</time>
      </trkpt>
      <trkpt lat="44.49908" lon="2.13709">
        <ele>287.8</ele>
        <time>2022-04-27T14:03:39Z</time>
      </trkpt>
      <trkpt lat="44.49906" lon="2.13712">
        <ele>288.2</ele>
        <time>2022-04-27T14:03:42Z</time>
      </trkpt>
      <trkpt lat="44.49905" lon="2.13714">
        <ele>288.4</ele>
        <time>2022-04-27T14:03:44Z</time>
      </trkpt>
      <trkpt lat="44.49905" lon="2.13715">
        <ele>288.6</ele>
        <time>2022-04-27T14:03:45Z</time>
      </trkpt>
      <trkpt lat="44.49903" lon="2.13718">
        <ele>288.8</ele>
        <time>2022-04-27T14:03:48Z</time>
      </trkpt>
      <trkpt lat="44.499" lon="2.13719">
        <ele>289</ele>
        <time>2022-04-27T14:03:50Z</time>
      </trkpt>
      <trkpt lat="44.49892" lon="2.13736">
        <ele>289.2</ele>
        <time>2022-04-27T14:04:03Z</time>
      </trkpt>
      <trkpt lat="44.49897" lon="2.13757">
        <ele>287.4</ele>
        <time>2022-04-27T14:04:16Z</time>
      </trkpt>
      <trkpt lat="44.49901" lon="2.13768">
        <ele>286.4</ele>
        <time>2022-04-27T14:04:24Z</time>
      </trkpt>
      <trkpt lat="44.49902" lon="2.13772">
        <ele>285.8</ele>
        <time>2022-04-27T14:04:28Z</time>
      </trkpt>
      <trkpt lat="44.49903" lon="2.13776">
        <ele>285.2</ele>
        <time>2022-04-27T14:04:32Z</time>
      </trkpt>
      <trkpt lat="44.49904" lon="2.13787">
        <ele>284.6</ele>
        <time>2022-04-27T14:04:42Z</time>
      </trkpt>
      <trkpt lat="44.49904" lon="2.13804">
        <ele>284.6</ele>
        <time>2022-04-27T14:04:56Z</time>
      </trkpt>
      <trkpt lat="44.49903" lon="2.13819">
        <ele>285.6</ele>
        <time>2022-04-27T14:05:09Z</time>
      </trkpt>
      <trkpt lat="44.49906" lon="2.13834">
        <ele>284.4</ele>
        <time>2022-04-27T14:05:23Z</time>
      </trkpt>
      <trkpt lat="44.49906" lon="2.13835">
        <ele>284.4</ele>
        <time>2022-04-27T14:05:24Z</time>
      </trkpt>
      <trkpt lat="44.49907" lon="2.13836">
        <ele>284.2</ele>
        <time>2022-04-27T14:05:25Z</time>
      </trkpt>
      <trkpt lat="44.49907" lon="2.13837">
        <ele>284.2</ele>
        <time>2022-04-27T14:05:26Z</time>
      </trkpt>
      <trkpt lat="44.49908" lon="2.1384">
        <ele>284</ele>
        <time>2022-04-27T14:05:30Z</time>
      </trkpt>
      <trkpt lat="44.4991" lon="2.13842">
        <ele>283.8</ele>
        <time>2022-04-27T14:05:33Z</time>
      </trkpt>
      <trkpt lat="44.49914" lon="2.13843">
        <ele>284</ele>
        <time>2022-04-27T14:05:39Z</time>
      </trkpt>
      <trkpt lat="44.4992" lon="2.13844">
        <ele>284</ele>
        <time>2022-04-27T14:05:44Z</time>
      </trkpt>
      <trkpt lat="44.49923" lon="2.13845">
        <ele>284</ele>
        <time>2022-04-27T14:05:47Z</time>
      </trkpt>
      <trkpt lat="44.49927" lon="2.13846">
        <ele>284</ele>
        <time>2022-04-27T14:05:52Z</time>
      </trkpt>
      <trkpt lat="44.49929" lon="2.13854">
        <ele>285.4</ele>
        <time>2022-04-27T14:06:00Z</time>
      </trkpt>
      <trkpt lat="44.4993" lon="2.13859">
        <ele>286.2</ele>
        <time>2022-04-27T14:06:05Z</time>
      </trkpt>
      <trkpt lat="44.4993" lon="2.1386">
        <ele>286.4</ele>
        <time>2022-04-27T14:06:06Z</time>
      </trkpt>
      <trkpt lat="44.49932" lon="2.13866">
        <ele>287.4</ele>
        <time>2022-04-27T14:06:11Z</time>
      </trkpt>
      <trkpt lat="44.49933" lon="2.13868">
        <ele>287.8</ele>
        <time>2022-04-27T14:06:12Z</time>
      </trkpt>
      <trkpt lat="44.49933" lon="2.1387">
        <ele>288</ele>
        <time>2022-04-27T14:06:13Z</time>
      </trkpt>
      <trkpt lat="44.49933" lon="2.13874">
        <ele>288.6</ele>
        <time>2022-04-27T14:06:16Z</time>
      </trkpt>
      <trkpt lat="44.49934" lon="2.1388">
        <ele>289.4</ele>
        <time>2022-04-27T14:06:21Z</time>
      </trkpt>
      <trkpt lat="44.49933" lon="2.13883">
        <ele>289.8</ele>
        <time>2022-04-27T14:06:24Z</time>
      </trkpt>
      <trkpt lat="44.49935" lon="2.13889">
        <ele>290.8</ele>
        <time>2022-04-27T14:06:31Z</time>
      </trkpt>
      <trkpt lat="44.49935" lon="2.1389">
        <ele>291</ele>
        <time>2022-04-27T14:06:32Z</time>
      </trkpt>
      <trkpt lat="44.49934" lon="2.13893">
        <ele>291.6</ele>
        <time>2022-04-27T14:06:35Z</time>
      </trkpt>
      <trkpt lat="44.49935" lon="2.13896">
        <ele>292</ele>
        <time>2022-04-27T14:06:37Z</time>
      </trkpt>
      <trkpt lat="44.49935" lon="2.13898">
        <ele>292.2</ele>
        <time>2022-04-27T14:06:39Z</time>
      </trkpt>
      <trkpt lat="44.49934" lon="2.13902">
        <ele>292.4</ele>
        <time>2022-04-27T14:06:41Z</time>
      </trkpt>
      <trkpt lat="44.49933" lon="2.13905">
        <ele>292.6</ele>
        <time>2022-04-27T14:06:43Z</time>
      </trkpt>
      <trkpt lat="44.49933" lon="2.13909">
        <ele>293</ele>
        <time>2022-04-27T14:06:46Z</time>
      </trkpt>
      <trkpt lat="44.49933" lon="2.1391">
        <ele>293</ele>
        <time>2022-04-27T14:06:47Z</time>
      </trkpt>
      <trkpt lat="44.49934" lon="2.13911">
        <ele>293</ele>
        <time>2022-04-27T14:06:48Z</time>
      </trkpt>
      <trkpt lat="44.49934" lon="2.13912">
        <ele>293.2</ele>
        <time>2022-04-27T14:06:49Z</time>
      </trkpt>
      <trkpt lat="44.49933" lon="2.13913">
        <ele>293.2</ele>
        <time>2022-04-27T14:06:50Z</time>
      </trkpt>
      <trkpt lat="44.49933" lon="2.13915">
        <ele>293.2</ele>
        <time>2022-04-27T14:06:52Z</time>
      </trkpt>
      <trkpt lat="44.49932" lon="2.13917">
        <ele>293.2</ele>
        <time>2022-04-27T14:06:54Z</time>
      </trkpt>
      <trkpt lat="44.49931" lon="2.13921">
        <ele>293.4</ele>
        <time>2022-04-27T14:06:59Z</time>
      </trkpt>
      <trkpt lat="44.49931" lon="2.13924">
        <ele>294.2</ele>
        <time>2022-04-27T14:07:02Z</time>
      </trkpt>
      <trkpt lat="44.4993" lon="2.13926">
        <ele>294.8</ele>
        <time>2022-04-27T14:07:04Z</time>
      </trkpt>
      <trkpt lat="44.4993" lon="2.13927">
        <ele>295</ele>
        <time>2022-04-27T14:07:05Z</time>
      </trkpt>
      <trkpt lat="44.4993" lon="2.13928">
        <ele>295.4</ele>
        <time>2022-04-27T14:07:07Z</time>
      </trkpt>
      <trkpt lat="44.49932" lon="2.13933">
        <ele>296.4</ele>
        <time>2022-04-27T14:07:14Z</time>
      </trkpt>
      <trkpt lat="44.49935" lon="2.13935">
        <ele>297.2</ele>
        <time>2022-04-27T14:07:18Z</time>
      </trkpt>
      <trkpt lat="44.49936" lon="2.13936">
        <ele>297.6</ele>
        <time>2022-04-27T14:07:20Z</time>
      </trkpt>
      <trkpt lat="44.4994" lon="2.13936">
        <ele>298.8</ele>
        <time>2022-04-27T14:07:24Z</time>
      </trkpt>
      <trkpt lat="44.49943" lon="2.13935">
        <ele>299.4</ele>
        <time>2022-04-27T14:07:27Z</time>
      </trkpt>
      <trkpt lat="44.49944" lon="2.13934">
        <ele>299.6</ele>
        <time>2022-04-27T14:07:30Z</time>
      </trkpt>
      <trkpt lat="44.49945" lon="2.13933">
        <ele>300</ele>
        <time>2022-04-27T14:07:31Z</time>
      </trkpt>
      <trkpt lat="44.4995" lon="2.13928">
        <ele>301.2</ele>
        <time>2022-04-27T14:07:40Z</time>
      </trkpt>
      <trkpt lat="44.4995" lon="2.13926">
        <ele>302</ele>
        <time>2022-04-27T14:07:42Z</time>
      </trkpt>
      <trkpt lat="44.4995" lon="2.13925">
        <ele>302.4</ele>
        <time>2022-04-27T14:07:44Z</time>
      </trkpt>
      <trkpt lat="44.49952" lon="2.13922">
        <ele>303.6</ele>
        <time>2022-04-27T14:07:49Z</time>
      </trkpt>
      <trkpt lat="44.49953" lon="2.13923">
        <ele>304.6</ele>
        <time>2022-04-27T14:07:52Z</time>
      </trkpt>
      <trkpt lat="44.49953" lon="2.13923">
        <ele>304.8</ele>
        <time>2022-04-27T14:07:53Z</time>
      </trkpt>
      <trkpt lat="44.49953" lon="2.13928">
        <ele>305.8</ele>
        <time>2022-04-27T14:07:59Z</time>
      </trkpt>
      <trkpt lat="44.49953" lon="2.13931">
        <ele>306.6</ele>
        <time>2022-04-27T14:08:03Z</time>
      </trkpt>
      <trkpt lat="44.49953" lon="2.13931">
        <ele>306.8</ele>
        <time>2022-04-27T14:08:04Z</time>
      </trkpt>
      <trkpt lat="44.49954" lon="2.13932">
        <ele>308.2</ele>
        <time>2022-04-27T14:08:09Z</time>
      </trkpt>
      <trkpt lat="44.49955" lon="2.13934">
        <ele>309.2</ele>
        <time>2022-04-27T14:08:12Z</time>
      </trkpt>
      <trkpt lat="44.49955" lon="2.13934">
        <ele>309.4</ele>
        <time>2022-04-27T14:08:13Z</time>
      </trkpt>
      <trkpt lat="44.49956" lon="2.13937">
        <ele>310.4</ele>
        <time>2022-04-27T14:08:17Z</time>
      </trkpt>
      <trkpt lat="44.49957" lon="2.1394">
        <ele>311.6</ele>
        <time>2022-04-27T14:08:21Z</time>
      </trkpt>
      <trkpt lat="44.49957" lon="2.13943">
        <ele>312.6</ele>
        <time>2022-04-27T14:08:26Z</time>
      </trkpt>
      <trkpt lat="44.49958" lon="2.13943">
        <ele>313.4</ele>
        <time>2022-04-27T14:08:39Z</time>
      </trkpt>
      <trkpt lat="44.49957" lon="2.13943">
        <ele>313.6</ele>
        <time>2022-04-27T14:08:42Z</time>
      </trkpt>
      <trkpt lat="44.49958" lon="2.13941">
        <ele>313.2</ele>
        <time>2022-04-27T14:08:53Z</time>
      </trkpt>
      <trkpt lat="44.49957" lon="2.1394">
        <ele>313.6</ele>
        <time>2022-04-27T14:09:06Z</time>
      </trkpt>
      <trkpt lat="44.49956" lon="2.13942">
        <ele>313.2</ele>
        <time>2022-04-27T14:09:23Z</time>
      </trkpt>
      <trkpt lat="44.49958" lon="2.13944">
        <ele>313.2</ele>
        <time>2022-04-27T14:09:36Z</time>
      </trkpt>
      <trkpt lat="44.49959" lon="2.13943">
        <ele>313.4</ele>
        <time>2022-04-27T14:09:48Z</time>
      </trkpt>
      <trkpt lat="44.49957" lon="2.13937">
        <ele>313.4</ele>
        <time>2022-04-27T14:09:57Z</time>
      </trkpt>
      <trkpt lat="44.49952" lon="2.13929">
        <ele>313.4</ele>
        <time>2022-04-27T14:10:09Z</time>
      </trkpt>
      <trkpt lat="44.49951" lon="2.13927">
        <ele>313.4</ele>
        <time>2022-04-27T14:10:11Z</time>
      </trkpt>
      <trkpt lat="44.49951" lon="2.13926">
        <ele>307.4</ele>
        <time>2022-04-27T14:10:12Z</time>
      </trkpt>
      <trkpt lat="44.4995" lon="2.13923">
        <ele>306.8</ele>
        <time>2022-04-27T14:10:15Z</time>
      </trkpt>
      <trkpt lat="44.49949" lon="2.13921">
        <ele>306.4</ele>
        <time>2022-04-27T14:10:17Z</time>
      </trkpt>
      <trkpt lat="44.49948" lon="2.1392">
        <ele>305</ele>
        <time>2022-04-27T14:10:21Z</time>
      </trkpt>
      <trkpt lat="44.49947" lon="2.13919">
        <ele>304.6</ele>
        <time>2022-04-27T14:10:22Z</time>
      </trkpt>
      <trkpt lat="44.49945" lon="2.13921">
        <ele>303.8</ele>
        <time>2022-04-27T14:10:26Z</time>
      </trkpt>
      <trkpt lat="44.49945" lon="2.13921">
        <ele>303.6</ele>
        <time>2022-04-27T14:10:27Z</time>
      </trkpt>
      <trkpt lat="44.49943" lon="2.13923">
        <ele>303</ele>
        <time>2022-04-27T14:10:33Z</time>
      </trkpt>
      <trkpt lat="44.49943" lon="2.13924">
        <ele>302.8</ele>
        <time>2022-04-27T14:10:34Z</time>
      </trkpt>
      <trkpt lat="44.49942" lon="2.13929">
        <ele>301.4</ele>
        <time>2022-04-27T14:10:39Z</time>
      </trkpt>
      <trkpt lat="44.4994" lon="2.13932">
        <ele>300.4</ele>
        <time>2022-04-27T14:10:43Z</time>
      </trkpt>
      <trkpt lat="44.4994" lon="2.13935">
        <ele>299.8</ele>
        <time>2022-04-27T14:10:46Z</time>
      </trkpt>
      <trkpt lat="44.49939" lon="2.13937">
        <ele>299.4</ele>
        <time>2022-04-27T14:10:51Z</time>
      </trkpt>
      <trkpt lat="44.49937" lon="2.13938">
        <ele>298.2</ele>
        <time>2022-04-27T14:11:00Z</time>
      </trkpt>
      <trkpt lat="44.49935" lon="2.13937">
        <ele>297.2</ele>
        <time>2022-04-27T14:11:03Z</time>
      </trkpt>
      <trkpt lat="44.49933" lon="2.13931">
        <ele>296</ele>
        <time>2022-04-27T14:11:09Z</time>
      </trkpt>
      <trkpt lat="44.49932" lon="2.13929">
        <ele>295.8</ele>
        <time>2022-04-27T14:11:11Z</time>
      </trkpt>
      <trkpt lat="44.49931" lon="2.13927">
        <ele>294.8</ele>
        <time>2022-04-27T14:11:14Z</time>
      </trkpt>
      <trkpt lat="44.49933" lon="2.13919">
        <ele>293.8</ele>
        <time>2022-04-27T14:11:22Z</time>
      </trkpt>
      <trkpt lat="44.49933" lon="2.13916">
        <ele>293.6</ele>
        <time>2022-04-27T14:11:24Z</time>
      </trkpt>
      <trkpt lat="44.49932" lon="2.13913">
        <ele>293.4</ele>
        <time>2022-04-27T14:11:26Z</time>
      </trkpt>
      <trkpt lat="44.49932" lon="2.1391">
        <ele>293.2</ele>
        <time>2022-04-27T14:11:28Z</time>
      </trkpt>
      <trkpt lat="44.49931" lon="2.13903">
        <ele>292.8</ele>
        <time>2022-04-27T14:11:32Z</time>
      </trkpt>
      <trkpt lat="44.49931" lon="2.139">
        <ele>292.6</ele>
        <time>2022-04-27T14:11:34Z</time>
      </trkpt>
      <trkpt lat="44.49931" lon="2.13889">
        <ele>291.8</ele>
        <time>2022-04-27T14:11:41Z</time>
      </trkpt>
      <trkpt lat="44.49931" lon="2.13888">
        <ele>291.6</ele>
        <time>2022-04-27T14:11:42Z</time>
      </trkpt>
      <trkpt lat="44.4993" lon="2.1388">
        <ele>290.4</ele>
        <time>2022-04-27T14:11:47Z</time>
      </trkpt>
      <trkpt lat="44.49929" lon="2.13873">
        <ele>289</ele>
        <time>2022-04-27T14:11:52Z</time>
      </trkpt>
      <trkpt lat="44.49927" lon="2.13867">
        <ele>287.8</ele>
        <time>2022-04-27T14:11:57Z</time>
      </trkpt>
      <trkpt lat="44.49926" lon="2.13863">
        <ele>286.8</ele>
        <time>2022-04-27T14:12:00Z</time>
      </trkpt>
      <trkpt lat="44.49923" lon="2.13854">
        <ele>285.8</ele>
        <time>2022-04-27T14:12:06Z</time>
      </trkpt>
      <trkpt lat="44.4992" lon="2.13852">
        <ele>285.2</ele>
        <time>2022-04-27T14:12:10Z</time>
      </trkpt>
      <trkpt lat="44.4992" lon="2.13853">
        <ele>285</ele>
        <time>2022-04-27T14:12:12Z</time>
      </trkpt>
      <trkpt lat="44.49921" lon="2.13863">
        <ele>284.8</ele>
        <time>2022-04-27T14:12:21Z</time>
      </trkpt>
      <trkpt lat="44.4992" lon="2.13865">
        <ele>284.8</ele>
        <time>2022-04-27T14:12:23Z</time>
      </trkpt>
      <trkpt lat="44.49919" lon="2.13867">
        <ele>284.6</ele>
        <time>2022-04-27T14:12:24Z</time>
      </trkpt>
      <trkpt lat="44.49918" lon="2.13872">
        <ele>284.8</ele>
        <time>2022-04-27T14:12:29Z</time>
      </trkpt>
      <trkpt lat="44.49917" lon="2.13875">
        <ele>284.8</ele>
        <time>2022-04-27T14:12:31Z</time>
      </trkpt>
      <trkpt lat="44.49914" lon="2.13879">
        <ele>284.6</ele>
        <time>2022-04-27T14:12:35Z</time>
      </trkpt>
      <trkpt lat="44.49912" lon="2.13884">
        <ele>284.8</ele>
        <time>2022-04-27T14:12:39Z</time>
      </trkpt>
      <trkpt lat="44.49911" lon="2.13888">
        <ele>284.6</ele>
        <time>2022-04-27T14:12:44Z</time>
      </trkpt>
      <trkpt lat="44.49911" lon="2.13889">
        <ele>284.6</ele>
        <time>2022-04-27T14:12:46Z</time>
      </trkpt>
      <trkpt lat="44.49909" lon="2.13891">
        <ele>284.8</ele>
        <time>2022-04-27T14:12:48Z</time>
      </trkpt>
      <trkpt lat="44.49908" lon="2.13892">
        <ele>284.8</ele>
        <time>2022-04-27T14:12:50Z</time>
      </trkpt>
      <trkpt lat="44.49907" lon="2.13893">
        <ele>284.8</ele>
        <time>2022-04-27T14:12:51Z</time>
      </trkpt>
      <trkpt lat="44.49903" lon="2.13897">
        <ele>284.6</ele>
        <time>2022-04-27T14:12:55Z</time>
      </trkpt>
      <trkpt lat="44.499" lon="2.13907">
        <ele>285</ele>
        <time>2022-04-27T14:13:03Z</time>
      </trkpt>
      <trkpt lat="44.49899" lon="2.13913">
        <ele>285.6</ele>
        <time>2022-04-27T14:13:08Z</time>
      </trkpt>
      <trkpt lat="44.49902" lon="2.13919">
        <ele>286.8</ele>
        <time>2022-04-27T14:13:13Z</time>
      </trkpt>
      <trkpt lat="44.49902" lon="2.13921">
        <ele>287</ele>
        <time>2022-04-27T14:13:16Z</time>
      </trkpt>
      <trkpt lat="44.49902" lon="2.13922">
        <ele>287</ele>
        <time>2022-04-27T14:13:17Z</time>
      </trkpt>
      <trkpt lat="44.49901" lon="2.13927">
        <ele>286.8</ele>
        <time>2022-04-27T14:13:20Z</time>
      </trkpt>
      <trkpt lat="44.49901" lon="2.13937">
        <ele>287.4</ele>
        <time>2022-04-27T14:13:28Z</time>
      </trkpt>
      <trkpt lat="44.49901" lon="2.1394">
        <ele>287.8</ele>
        <time>2022-04-27T14:13:31Z</time>
      </trkpt>
      <trkpt lat="44.49905" lon="2.13959">
        <ele>288.8</ele>
        <time>2022-04-27T14:13:46Z</time>
      </trkpt>
      <trkpt lat="44.4991" lon="2.13969">
        <ele>288.8</ele>
        <time>2022-04-27T14:13:55Z</time>
      </trkpt>
      <trkpt lat="44.49913" lon="2.13978">
        <ele>289.2</ele>
        <time>2022-04-27T14:14:02Z</time>
      </trkpt>
      <trkpt lat="44.49916" lon="2.13998">
        <ele>289.2</ele>
        <time>2022-04-27T14:14:17Z</time>
      </trkpt>
      <trkpt lat="44.49921" lon="2.14018">
        <ele>288.6</ele>
        <time>2022-04-27T14:14:33Z</time>
      </trkpt>
      <trkpt lat="44.49929" lon="2.14041">
        <ele>289.2</ele>
        <time>2022-04-27T14:14:51Z</time>
      </trkpt>
      <trkpt lat="44.49934" lon="2.14051">
        <ele>290</ele>
        <time>2022-04-27T14:15:00Z</time>
      </trkpt>
      <trkpt lat="44.49938" lon="2.14055">
        <ele>290.4</ele>
        <time>2022-04-27T14:15:05Z</time>
      </trkpt>
      <trkpt lat="44.49942" lon="2.1406">
        <ele>290.6</ele>
        <time>2022-04-27T14:15:12Z</time>
      </trkpt>
      <trkpt lat="44.49945" lon="2.14063">
        <ele>290.8</ele>
        <time>2022-04-27T14:15:17Z</time>
      </trkpt>
      <trkpt lat="44.49946" lon="2.14064">
        <ele>291</ele>
        <time>2022-04-27T14:15:18Z</time>
      </trkpt>
      <trkpt lat="44.49946" lon="2.14065">
        <ele>291</ele>
        <time>2022-04-27T14:15:19Z</time>
      </trkpt>
      <trkpt lat="44.49948" lon="2.14073">
        <ele>291.4</ele>
        <time>2022-04-27T14:15:27Z</time>
      </trkpt>
      <trkpt lat="44.49949" lon="2.14076">
        <ele>291.4</ele>
        <time>2022-04-27T14:15:30Z</time>
      </trkpt>
      <trkpt lat="44.49952" lon="2.1408">
        <ele>291.6</ele>
        <time>2022-04-27T14:15:35Z</time>
      </trkpt>
      <trkpt lat="44.49953" lon="2.1408">
        <ele>292</ele>
        <time>2022-04-27T14:15:37Z</time>
      </trkpt>
      <trkpt lat="44.49957" lon="2.14082">
        <ele>293.2</ele>
        <time>2022-04-27T14:15:43Z</time>
      </trkpt>
      <trkpt lat="44.4996" lon="2.14093">
        <ele>294.4</ele>
        <time>2022-04-27T14:15:56Z</time>
      </trkpt>
      <trkpt lat="44.49961" lon="2.14097">
        <ele>294.8</ele>
        <time>2022-04-27T14:15:59Z</time>
      </trkpt>
      <trkpt lat="44.4996" lon="2.14105">
        <ele>295.4</ele>
        <time>2022-04-27T14:16:06Z</time>
      </trkpt>
      <trkpt lat="44.4996" lon="2.14109">
        <ele>296.4</ele>
        <time>2022-04-27T14:16:10Z</time>
      </trkpt>
      <trkpt lat="44.4996" lon="2.14112">
        <ele>296.8</ele>
        <time>2022-04-27T14:16:12Z</time>
      </trkpt>
      <trkpt lat="44.49959" lon="2.14113">
        <ele>296.8</ele>
        <time>2022-04-27T14:16:13Z</time>
      </trkpt>
      <trkpt lat="44.49959" lon="2.14114">
        <ele>296.8</ele>
        <time>2022-04-27T14:16:14Z</time>
      </trkpt>
      <trkpt lat="44.49958" lon="2.14119">
        <ele>297.2</ele>
        <time>2022-04-27T14:16:19Z</time>
      </trkpt>
      <trkpt lat="44.49957" lon="2.14124">
        <ele>297.4</ele>
        <time>2022-04-27T14:16:22Z</time>
      </trkpt>
      <trkpt lat="44.49956" lon="2.14129">
        <ele>298.4</ele>
        <time>2022-04-27T14:16:26Z</time>
      </trkpt>
      <trkpt lat="44.49955" lon="2.14131">
        <ele>298.6</ele>
        <time>2022-04-27T14:16:28Z</time>
      </trkpt>
      <trkpt lat="44.49955" lon="2.14133">
        <ele>298.6</ele>
        <time>2022-04-27T14:16:30Z</time>
      </trkpt>
      <trkpt lat="44.49954" lon="2.14137">
        <ele>299.2</ele>
        <time>2022-04-27T14:16:34Z</time>
      </trkpt>
      <trkpt lat="44.49954" lon="2.14138">
        <ele>299.4</ele>
        <time>2022-04-27T14:16:35Z</time>
      </trkpt>
      <trkpt lat="44.49953" lon="2.14142">
        <ele>299.4</ele>
        <time>2022-04-27T14:16:39Z</time>
      </trkpt>
      <trkpt lat="44.49953" lon="2.14143">
        <ele>299.4</ele>
        <time>2022-04-27T14:16:40Z</time>
      </trkpt>
      <trkpt lat="44.4995" lon="2.14147">
        <ele>299.4</ele>
        <time>2022-04-27T14:16:45Z</time>
      </trkpt>
      <trkpt lat="44.4995" lon="2.14148">
        <ele>299.4</ele>
        <time>2022-04-27T14:16:46Z</time>
      </trkpt>
      <trkpt lat="44.49949" lon="2.14151">
        <ele>299.6</ele>
        <time>2022-04-27T14:16:50Z</time>
      </trkpt>
      <trkpt lat="44.49948" lon="2.14153">
        <ele>299.8</ele>
        <time>2022-04-27T14:16:53Z</time>
      </trkpt>
      <trkpt lat="44.49945" lon="2.14167">
        <ele>300.4</ele>
        <time>2022-04-27T14:17:05Z</time>
      </trkpt>
      <trkpt lat="44.49946" lon="2.14169">
        <ele>300.6</ele>
        <time>2022-04-27T14:17:07Z</time>
      </trkpt>
      <trkpt lat="44.49948" lon="2.14171">
        <ele>301</ele>
        <time>2022-04-27T14:17:09Z</time>
      </trkpt>
      <trkpt lat="44.4995" lon="2.14174">
        <ele>301.8</ele>
        <time>2022-04-27T14:17:12Z</time>
      </trkpt>
      <trkpt lat="44.49951" lon="2.14175">
        <ele>301.8</ele>
        <time>2022-04-27T14:17:13Z</time>
      </trkpt>
      <trkpt lat="44.49952" lon="2.14176">
        <ele>302</ele>
        <time>2022-04-27T14:17:14Z</time>
      </trkpt>
      <trkpt lat="44.49953" lon="2.14178">
        <ele>302.6</ele>
        <time>2022-04-27T14:17:17Z</time>
      </trkpt>
      <trkpt lat="44.49953" lon="2.1418">
        <ele>302.8</ele>
        <time>2022-04-27T14:17:19Z</time>
      </trkpt>
      <trkpt lat="44.49954" lon="2.14181">
        <ele>303</ele>
        <time>2022-04-27T14:17:20Z</time>
      </trkpt>
      <trkpt lat="44.49955" lon="2.14183">
        <ele>303.2</ele>
        <time>2022-04-27T14:17:22Z</time>
      </trkpt>
      <trkpt lat="44.49955" lon="2.14184">
        <ele>303.4</ele>
        <time>2022-04-27T14:17:25Z</time>
      </trkpt>
      <trkpt lat="44.49955" lon="2.14198">
        <ele>302.8</ele>
        <time>2022-04-27T14:17:34Z</time>
      </trkpt>
      <trkpt lat="44.49955" lon="2.14201">
        <ele>303</ele>
        <time>2022-04-27T14:17:36Z</time>
      </trkpt>
      <trkpt lat="44.49957" lon="2.14205">
        <ele>303.2</ele>
        <time>2022-04-27T14:17:40Z</time>
      </trkpt>
      <trkpt lat="44.49958" lon="2.14208">
        <ele>303.2</ele>
        <time>2022-04-27T14:17:43Z</time>
      </trkpt>
      <trkpt lat="44.49956" lon="2.14212">
        <ele>303.4</ele>
        <time>2022-04-27T14:17:51Z</time>
      </trkpt>
      <trkpt lat="44.4996" lon="2.14209">
        <ele>303.2</ele>
        <time>2022-04-27T14:18:03Z</time>
      </trkpt>
      <trkpt lat="44.49966" lon="2.14211">
        <ele>303.4</ele>
        <time>2022-04-27T14:18:18Z</time>
      </trkpt>
      <trkpt lat="44.49965" lon="2.14211">
        <ele>303.8</ele>
        <time>2022-04-27T14:18:24Z</time>
      </trkpt>
      <trkpt lat="44.49965" lon="2.14215">
        <ele>303.2</ele>
        <time>2022-04-27T14:18:30Z</time>
      </trkpt>
      <trkpt lat="44.49965" lon="2.14226">
        <ele>304</ele>
        <time>2022-04-27T14:18:41Z</time>
      </trkpt>
      <trkpt lat="44.49966" lon="2.14229">
        <ele>304.4</ele>
        <time>2022-04-27T14:18:44Z</time>
      </trkpt>
      <trkpt lat="44.49966" lon="2.14231">
        <ele>304.8</ele>
        <time>2022-04-27T14:18:46Z</time>
      </trkpt>
      <trkpt lat="44.49966" lon="2.14232">
        <ele>305.2</ele>
        <time>2022-04-27T14:18:47Z</time>
      </trkpt>
      <trkpt lat="44.49967" lon="2.14235">
        <ele>306</ele>
        <time>2022-04-27T14:18:50Z</time>
      </trkpt>
      <trkpt lat="44.49967" lon="2.14236">
        <ele>306.4</ele>
        <time>2022-04-27T14:18:52Z</time>
      </trkpt>
      <trkpt lat="44.49967" lon="2.14238">
        <ele>307</ele>
        <time>2022-04-27T14:18:54Z</time>
      </trkpt>
      <trkpt lat="44.49967" lon="2.14239">
        <ele>307.2</ele>
        <time>2022-04-27T14:18:56Z</time>
      </trkpt>
      <trkpt lat="44.49967" lon="2.1424">
        <ele>307.6</ele>
        <time>2022-04-27T14:18:58Z</time>
      </trkpt>
      <trkpt lat="44.49966" lon="2.14242">
        <ele>308</ele>
        <time>2022-04-27T14:19:00Z</time>
      </trkpt>
      <trkpt lat="44.49965" lon="2.14243">
        <ele>308.6</ele>
        <time>2022-04-27T14:19:02Z</time>
      </trkpt>
      <trkpt lat="44.4996" lon="2.14248">
        <ele>309</ele>
        <time>2022-04-27T14:19:16Z</time>
      </trkpt>
      <trkpt lat="44.4996" lon="2.14251">
        <ele>308.8</ele>
        <time>2022-04-27T14:19:31Z</time>
      </trkpt>
      <trkpt lat="44.49959" lon="2.14253">
        <ele>309</ele>
        <time>2022-04-27T14:19:33Z</time>
      </trkpt>
      <trkpt lat="44.49958" lon="2.14268">
        <ele>309.6</ele>
        <time>2022-04-27T14:19:46Z</time>
      </trkpt>
      <trkpt lat="44.49957" lon="2.14269">
        <ele>309.8</ele>
        <time>2022-04-27T14:19:47Z</time>
      </trkpt>
      <trkpt lat="44.49955" lon="2.14271">
        <ele>310.6</ele>
        <time>2022-04-27T14:19:56Z</time>
      </trkpt>
      <trkpt lat="44.49955" lon="2.14271">
        <ele>311</ele>
        <time>2022-04-27T14:19:58Z</time>
      </trkpt>
      <trkpt lat="44.49952" lon="2.14273">
        <ele>309.8</ele>
        <time>2022-04-27T14:20:08Z</time>
      </trkpt>
      <trkpt lat="44.49948" lon="2.14276">
        <ele>308.8</ele>
        <time>2022-04-27T14:20:18Z</time>
      </trkpt>
      <trkpt lat="44.49947" lon="2.14278">
        <ele>308.4</ele>
        <time>2022-04-27T14:20:25Z</time>
      </trkpt>
      <trkpt lat="44.49942" lon="2.14279">
        <ele>307.4</ele>
        <time>2022-04-27T14:20:32Z</time>
      </trkpt>
      <trkpt lat="44.49938" lon="2.14281">
        <ele>306.6</ele>
        <time>2022-04-27T14:20:37Z</time>
      </trkpt>
      <trkpt lat="44.49936" lon="2.14282">
        <ele>306.4</ele>
        <time>2022-04-27T14:20:41Z</time>
      </trkpt>
      <trkpt lat="44.49937" lon="2.14283">
        <ele>305.8</ele>
        <time>2022-04-27T14:20:52Z</time>
      </trkpt>
      <trkpt lat="44.49932" lon="2.14282">
        <ele>308.2</ele>
        <time>2022-04-27T14:21:04Z</time>
      </trkpt>
      <trkpt lat="44.49929" lon="2.14278">
        <ele>308.2</ele>
        <time>2022-04-27T14:21:08Z</time>
      </trkpt>
      <trkpt lat="44.49925" lon="2.14271">
        <ele>307</ele>
        <time>2022-04-27T14:21:15Z</time>
      </trkpt>
      <trkpt lat="44.49925" lon="2.1427">
        <ele>306</ele>
        <time>2022-04-27T14:21:18Z</time>
      </trkpt>
      <trkpt lat="44.49926" lon="2.14275">
        <ele>306.8</ele>
        <time>2022-04-27T14:21:22Z</time>
      </trkpt>
      <trkpt lat="44.49921" lon="2.14275">
        <ele>306.2</ele>
        <time>2022-04-27T14:21:36Z</time>
      </trkpt>
      <trkpt lat="44.49919" lon="2.14274">
        <ele>307</ele>
        <time>2022-04-27T14:21:51Z</time>
      </trkpt>
      <trkpt lat="44.49919" lon="2.14274">
        <ele>307.6</ele>
        <time>2022-04-27T14:22:05Z</time>
      </trkpt>
      <trkpt lat="44.49919" lon="2.1427">
        <ele>308</ele>
        <time>2022-04-27T14:22:14Z</time>
      </trkpt>
      <trkpt lat="44.49919" lon="2.1427">
        <ele>308</ele>
        <time>2022-04-27T14:22:15Z</time>
      </trkpt>
      <trkpt lat="44.49919" lon="2.14261">
        <ele>307.6</ele>
        <time>2022-04-27T14:22:30Z</time>
      </trkpt>
      <trkpt lat="44.49917" lon="2.14255">
        <ele>308.2</ele>
        <time>2022-04-27T14:22:36Z</time>
      </trkpt>
      <trkpt lat="44.49916" lon="2.14256">
        <ele>308.2</ele>
        <time>2022-04-27T14:22:41Z</time>
      </trkpt>
      <trkpt lat="44.49914" lon="2.14255">
        <ele>308.2</ele>
        <time>2022-04-27T14:22:58Z</time>
      </trkpt>
      <trkpt lat="44.49918" lon="2.14255">
        <ele>309</ele>
        <time>2022-04-27T14:23:08Z</time>
      </trkpt>
      <trkpt lat="44.49918" lon="2.14255">
        <ele>309.2</ele>
        <time>2022-04-27T14:23:09Z</time>
      </trkpt>
      <trkpt lat="44.49917" lon="2.1425">
        <ele>310.2</ele>
        <time>2022-04-27T14:23:21Z</time>
      </trkpt>
      <trkpt lat="44.49911" lon="2.14247">
        <ele>311.2</ele>
        <time>2022-04-27T14:23:29Z</time>
      </trkpt>
      <trkpt lat="44.49911" lon="2.14247">
        <ele>311.2</ele>
        <time>2022-04-27T14:23:30Z</time>
      </trkpt>
      <trkpt lat="44.49909" lon="2.14245">
        <ele>312</ele>
        <time>2022-04-27T14:23:34Z</time>
      </trkpt>
      <trkpt lat="44.49908" lon="2.14243">
        <ele>312.4</ele>
        <time>2022-04-27T14:23:36Z</time>
      </trkpt>
      <trkpt lat="44.49908" lon="2.14243">
        <ele>312.6</ele>
        <time>2022-04-27T14:23:38Z</time>
      </trkpt>
      <trkpt lat="44.49907" lon="2.14243">
        <ele>313.4</ele>
        <time>2022-04-27T14:23:44Z</time>
      </trkpt>
      <trkpt lat="44.49906" lon="2.14243">
        <ele>313.6</ele>
        <time>2022-04-27T14:23:47Z</time>
      </trkpt>
      <trkpt lat="44.49899" lon="2.14243">
        <ele>313.6</ele>
        <time>2022-04-27T14:24:01Z</time>
      </trkpt>
      <trkpt lat="44.49899" lon="2.14245">
        <ele>314</ele>
        <time>2022-04-27T14:24:12Z</time>
      </trkpt>
      <trkpt lat="44.49899" lon="2.14243">
        <ele>314.6</ele>
        <time>2022-04-27T14:24:14Z</time>
      </trkpt>
      <trkpt lat="44.49896" lon="2.14239">
        <ele>315.2</ele>
        <time>2022-04-27T14:24:26Z</time>
      </trkpt>
      <trkpt lat="44.49897" lon="2.14239">
        <ele>315.6</ele>
        <time>2022-04-27T14:24:33Z</time>
      </trkpt>
      <trkpt lat="44.49898" lon="2.14238">
        <ele>316.2</ele>
        <time>2022-04-27T14:24:37Z</time>
      </trkpt>
      <trkpt lat="44.499" lon="2.14236">
        <ele>316.8</ele>
        <time>2022-04-27T14:24:42Z</time>
      </trkpt>
      <trkpt lat="44.49902" lon="2.14234">
        <ele>317.4</ele>
        <time>2022-04-27T14:24:48Z</time>
      </trkpt>
      <trkpt lat="44.49902" lon="2.14235">
        <ele>317.8</ele>
        <time>2022-04-27T14:24:49Z</time>
      </trkpt>
      <trkpt lat="44.49903" lon="2.1423">
        <ele>318.6</ele>
        <time>2022-04-27T14:25:01Z</time>
      </trkpt>
      <trkpt lat="44.49903" lon="2.1423">
        <ele>319</ele>
        <time>2022-04-27T14:25:02Z</time>
      </trkpt>
      <trkpt lat="44.49906" lon="2.14224">
        <ele>320.2</ele>
        <time>2022-04-27T14:25:11Z</time>
      </trkpt>
      <trkpt lat="44.49909" lon="2.14223">
        <ele>321</ele>
        <time>2022-04-27T14:25:16Z</time>
      </trkpt>
      <trkpt lat="44.49909" lon="2.14223">
        <ele>321.4</ele>
        <time>2022-04-27T14:25:18Z</time>
      </trkpt>
      <trkpt lat="44.49906" lon="2.14219">
        <ele>322.2</ele>
        <time>2022-04-27T14:25:27Z</time>
      </trkpt>
      <trkpt lat="44.49906" lon="2.14218">
        <ele>322.4</ele>
        <time>2022-04-27T14:25:28Z</time>
      </trkpt>
      <trkpt lat="44.49905" lon="2.14216">
        <ele>322.4</ele>
        <time>2022-04-27T14:25:30Z</time>
      </trkpt>
      <trkpt lat="44.49905" lon="2.14214">
        <ele>323.4</ele>
        <time>2022-04-27T14:25:35Z</time>
      </trkpt>
      <trkpt lat="44.49905" lon="2.14214">
        <ele>323.8</ele>
        <time>2022-04-27T14:25:37Z</time>
      </trkpt>
      <trkpt lat="44.49907" lon="2.14213">
        <ele>324.4</ele>
        <time>2022-04-27T14:25:44Z</time>
      </trkpt>
      <trkpt lat="44.4991" lon="2.14214">
        <ele>325</ele>
        <time>2022-04-27T14:25:48Z</time>
      </trkpt>
      <trkpt lat="44.49911" lon="2.14214">
        <ele>325.6</ele>
        <time>2022-04-27T14:25:52Z</time>
      </trkpt>
      <trkpt lat="44.49911" lon="2.14212">
        <ele>326.2</ele>
        <time>2022-04-27T14:25:58Z</time>
      </trkpt>
      <trkpt lat="44.49911" lon="2.14208">
        <ele>326.6</ele>
        <time>2022-04-27T14:26:05Z</time>
      </trkpt>
      <trkpt lat="44.49911" lon="2.14208">
        <ele>327.4</ele>
        <time>2022-04-27T14:26:11Z</time>
      </trkpt>
      <trkpt lat="44.49915" lon="2.14208">
        <ele>327.4</ele>
        <time>2022-04-27T14:26:21Z</time>
      </trkpt>
      <trkpt lat="44.49917" lon="2.14209">
        <ele>327</ele>
        <time>2022-04-27T14:26:30Z</time>
      </trkpt>
      <trkpt lat="44.49918" lon="2.14207">
        <ele>327.2</ele>
        <time>2022-04-27T14:26:37Z</time>
      </trkpt>
      <trkpt lat="44.49914" lon="2.14207">
        <ele>326.6</ele>
        <time>2022-04-27T14:26:41Z</time>
      </trkpt>
      <trkpt lat="44.49908" lon="2.14206">
        <ele>327.6</ele>
        <time>2022-04-27T14:26:49Z</time>
      </trkpt>
      <trkpt lat="44.49906" lon="2.14202">
        <ele>328.2</ele>
        <time>2022-04-27T14:26:54Z</time>
      </trkpt>
      <trkpt lat="44.49905" lon="2.14202">
        <ele>328.6</ele>
        <time>2022-04-27T14:26:55Z</time>
      </trkpt>
      <trkpt lat="44.49904" lon="2.14201">
        <ele>328.8</ele>
        <time>2022-04-27T14:26:56Z</time>
      </trkpt>
      <trkpt lat="44.49903" lon="2.14199">
        <ele>329.2</ele>
        <time>2022-04-27T14:26:58Z</time>
      </trkpt>
      <trkpt lat="44.49902" lon="2.14196">
        <ele>329.8</ele>
        <time>2022-04-27T14:27:01Z</time>
      </trkpt>
      <trkpt lat="44.49902" lon="2.14195">
        <ele>330.4</ele>
        <time>2022-04-27T14:27:04Z</time>
      </trkpt>
      <trkpt lat="44.49902" lon="2.14194">
        <ele>330.4</ele>
        <time>2022-04-27T14:27:05Z</time>
      </trkpt>
      <trkpt lat="44.499" lon="2.14192">
        <ele>331</ele>
        <time>2022-04-27T14:27:10Z</time>
      </trkpt>
      <trkpt lat="44.499" lon="2.14187">
        <ele>332.4</ele>
        <time>2022-04-27T14:27:16Z</time>
      </trkpt>
      <trkpt lat="44.499" lon="2.14187">
        <ele>332.6</ele>
        <time>2022-04-27T14:27:17Z</time>
      </trkpt>
      <trkpt lat="44.49899" lon="2.14185">
        <ele>333.4</ele>
        <time>2022-04-27T14:27:21Z</time>
      </trkpt>
      <trkpt lat="44.49897" lon="2.14187">
        <ele>334.4</ele>
        <time>2022-04-27T14:27:26Z</time>
      </trkpt>
      <trkpt lat="44.49896" lon="2.14187">
        <ele>334.8</ele>
        <time>2022-04-27T14:27:27Z</time>
      </trkpt>
      <trkpt lat="44.49891" lon="2.14182">
        <ele>335.8</ele>
        <time>2022-04-27T14:27:37Z</time>
      </trkpt>
      <trkpt lat="44.49886" lon="2.14176">
        <ele>337</ele>
        <time>2022-04-27T14:27:45Z</time>
      </trkpt>
      <trkpt lat="44.49883" lon="2.14173">
        <ele>337.6</ele>
        <time>2022-04-27T14:27:49Z</time>
      </trkpt>
      <trkpt lat="44.49882" lon="2.14172">
        <ele>337.8</ele>
        <time>2022-04-27T14:27:50Z</time>
      </trkpt>
      <trkpt lat="44.49881" lon="2.14172">
        <ele>338</ele>
        <time>2022-04-27T14:27:51Z</time>
      </trkpt>
      <trkpt lat="44.49881" lon="2.14171">
        <ele>338.2</ele>
        <time>2022-04-27T14:27:52Z</time>
      </trkpt>
      <trkpt lat="44.4988" lon="2.1417">
        <ele>338.4</ele>
        <time>2022-04-27T14:27:54Z</time>
      </trkpt>
      <trkpt lat="44.49879" lon="2.14169">
        <ele>339</ele>
        <time>2022-04-27T14:27:56Z</time>
      </trkpt>
      <trkpt lat="44.49878" lon="2.14168">
        <ele>339.2</ele>
        <time>2022-04-27T14:27:57Z</time>
      </trkpt>
      <trkpt lat="44.49877" lon="2.14168">
        <ele>339.4</ele>
        <time>2022-04-27T14:27:59Z</time>
      </trkpt>
      <trkpt lat="44.49875" lon="2.14167">
        <ele>340.2</ele>
        <time>2022-04-27T14:28:01Z</time>
      </trkpt>
      <trkpt lat="44.49875" lon="2.14166">
        <ele>340.8</ele>
        <time>2022-04-27T14:28:04Z</time>
      </trkpt>
      <trkpt lat="44.49874" lon="2.14165">
        <ele>341.4</ele>
        <time>2022-04-27T14:28:06Z</time>
      </trkpt>
      <trkpt lat="44.49871" lon="2.14161">
        <ele>342.4</ele>
        <time>2022-04-27T14:28:15Z</time>
      </trkpt>
      <trkpt lat="44.49869" lon="2.14158">
        <ele>342.8</ele>
        <time>2022-04-27T14:28:18Z</time>
      </trkpt>
      <trkpt lat="44.49868" lon="2.14156">
        <ele>343.2</ele>
        <time>2022-04-27T14:28:20Z</time>
      </trkpt>
      <trkpt lat="44.49868" lon="2.14154">
        <ele>343.6</ele>
        <time>2022-04-27T14:28:21Z</time>
      </trkpt>
      <trkpt lat="44.49868" lon="2.14153">
        <ele>343.8</ele>
        <time>2022-04-27T14:28:22Z</time>
      </trkpt>
      <trkpt lat="44.49865" lon="2.14146">
        <ele>344.8</ele>
        <time>2022-04-27T14:28:30Z</time>
      </trkpt>
      <trkpt lat="44.49864" lon="2.14142">
        <ele>345.2</ele>
        <time>2022-04-27T14:28:34Z</time>
      </trkpt>
      <trkpt lat="44.49861" lon="2.14139">
        <ele>345.8</ele>
        <time>2022-04-27T14:28:38Z</time>
      </trkpt>
      <trkpt lat="44.49858" lon="2.14136">
        <ele>347</ele>
        <time>2022-04-27T14:28:43Z</time>
      </trkpt>
      <trkpt lat="44.49856" lon="2.14132">
        <ele>347.8</ele>
        <time>2022-04-27T14:28:49Z</time>
      </trkpt>
      <trkpt lat="44.49856" lon="2.14131">
        <ele>348</ele>
        <time>2022-04-27T14:28:51Z</time>
      </trkpt>
      <trkpt lat="44.49854" lon="2.14127">
        <ele>349</ele>
        <time>2022-04-27T14:28:58Z</time>
      </trkpt>
      <trkpt lat="44.49853" lon="2.14123">
        <ele>350</ele>
        <time>2022-04-27T14:29:06Z</time>
      </trkpt>
      <trkpt lat="44.49851" lon="2.14121">
        <ele>350.2</ele>
        <time>2022-04-27T14:29:09Z</time>
      </trkpt>
      <trkpt lat="44.49846" lon="2.14118">
        <ele>351.4</ele>
        <time>2022-04-27T14:29:17Z</time>
      </trkpt>
      <trkpt lat="44.49845" lon="2.1412">
        <ele>352.2</ele>
        <time>2022-04-27T14:29:21Z</time>
      </trkpt>
      <trkpt lat="44.49845" lon="2.14122">
        <ele>352.4</ele>
        <time>2022-04-27T14:29:24Z</time>
      </trkpt>
      <trkpt lat="44.49844" lon="2.14124">
        <ele>353.6</ele>
        <time>2022-04-27T14:29:32Z</time>
      </trkpt>
      <trkpt lat="44.49843" lon="2.14127">
        <ele>354.6</ele>
        <time>2022-04-27T14:29:36Z</time>
      </trkpt>
      <trkpt lat="44.49844" lon="2.14132">
        <ele>355.8</ele>
        <time>2022-04-27T14:29:42Z</time>
      </trkpt>
      <trkpt lat="44.49845" lon="2.14139">
        <ele>357</ele>
        <time>2022-04-27T14:29:49Z</time>
      </trkpt>
      <trkpt lat="44.49846" lon="2.14139">
        <ele>357.2</ele>
        <time>2022-04-27T14:29:50Z</time>
      </trkpt>
      <trkpt lat="44.49846" lon="2.14145">
        <ele>358.4</ele>
        <time>2022-04-27T14:29:57Z</time>
      </trkpt>
      <trkpt lat="44.49844" lon="2.14149">
        <ele>359.4</ele>
        <time>2022-04-27T14:30:03Z</time>
      </trkpt>
      <trkpt lat="44.49843" lon="2.14153">
        <ele>360.2</ele>
        <time>2022-04-27T14:30:07Z</time>
      </trkpt>
      <trkpt lat="44.49842" lon="2.14154">
        <ele>360.6</ele>
        <time>2022-04-27T14:30:09Z</time>
      </trkpt>
      <trkpt lat="44.49839" lon="2.14161">
        <ele>361.6</ele>
        <time>2022-04-27T14:30:16Z</time>
      </trkpt>
      <trkpt lat="44.49838" lon="2.14163">
        <ele>362.2</ele>
        <time>2022-04-27T14:30:20Z</time>
      </trkpt>
      <trkpt lat="44.49837" lon="2.14164">
        <ele>362.6</ele>
        <time>2022-04-27T14:30:23Z</time>
      </trkpt>
      <trkpt lat="44.49836" lon="2.14171">
        <ele>363.4</ele>
        <time>2022-04-27T14:30:33Z</time>
      </trkpt>
      <trkpt lat="44.49835" lon="2.14172">
        <ele>363.8</ele>
        <time>2022-04-27T14:30:35Z</time>
      </trkpt>
      <trkpt lat="44.49834" lon="2.14169">
        <ele>364.8</ele>
        <time>2022-04-27T14:30:43Z</time>
      </trkpt>
      <trkpt lat="44.49834" lon="2.14165">
        <ele>365.8</ele>
        <time>2022-04-27T14:30:48Z</time>
      </trkpt>
      <trkpt lat="44.49832" lon="2.1416">
        <ele>367</ele>
        <time>2022-04-27T14:30:54Z</time>
      </trkpt>
      <trkpt lat="44.49832" lon="2.14158">
        <ele>367.6</ele>
        <time>2022-04-27T14:30:58Z</time>
      </trkpt>
      <trkpt lat="44.49831" lon="2.14156">
        <ele>368</ele>
        <time>2022-04-27T14:31:01Z</time>
      </trkpt>
      <trkpt lat="44.4983" lon="2.14147">
        <ele>368.8</ele>
        <time>2022-04-27T14:31:11Z</time>
      </trkpt>
      <trkpt lat="44.4983" lon="2.14146">
        <ele>369</ele>
        <time>2022-04-27T14:31:13Z</time>
      </trkpt>
      <trkpt lat="44.49824" lon="2.1414">
        <ele>370.2</ele>
        <time>2022-04-27T14:31:22Z</time>
      </trkpt>
      <trkpt lat="44.49824" lon="2.14139">
        <ele>370.2</ele>
        <time>2022-04-27T14:31:23Z</time>
      </trkpt>
      <trkpt lat="44.4982" lon="2.14136">
        <ele>371.4</ele>
        <time>2022-04-27T14:31:30Z</time>
      </trkpt>
      <trkpt lat="44.49817" lon="2.14133">
        <ele>372.4</ele>
        <time>2022-04-27T14:31:36Z</time>
      </trkpt>
      <trkpt lat="44.49816" lon="2.14132">
        <ele>373</ele>
        <time>2022-04-27T14:31:39Z</time>
      </trkpt>
      <trkpt lat="44.49814" lon="2.14131">
        <ele>373.6</ele>
        <time>2022-04-27T14:31:44Z</time>
      </trkpt>
      <trkpt lat="44.49811" lon="2.14126">
        <ele>374.8</ele>
        <time>2022-04-27T14:31:51Z</time>
      </trkpt>
      <trkpt lat="44.4981" lon="2.14122">
        <ele>375.4</ele>
        <time>2022-04-27T14:31:55Z</time>
      </trkpt>
      <trkpt lat="44.49807" lon="2.14115">
        <ele>375.8</ele>
        <time>2022-04-27T14:32:03Z</time>
      </trkpt>
      <trkpt lat="44.49803" lon="2.14107">
        <ele>377</ele>
        <time>2022-04-27T14:32:11Z</time>
      </trkpt>
      <trkpt lat="44.49802" lon="2.14106">
        <ele>377</ele>
        <time>2022-04-27T14:32:12Z</time>
      </trkpt>
      <trkpt lat="44.49799" lon="2.14104">
        <ele>378</ele>
        <time>2022-04-27T14:32:18Z</time>
      </trkpt>
      <trkpt lat="44.49796" lon="2.14101">
        <ele>379</ele>
        <time>2022-04-27T14:32:25Z</time>
      </trkpt>
      <trkpt lat="44.49794" lon="2.141">
        <ele>379.4</ele>
        <time>2022-04-27T14:32:27Z</time>
      </trkpt>
      <trkpt lat="44.49791" lon="2.14098">
        <ele>380</ele>
        <time>2022-04-27T14:32:33Z</time>
      </trkpt>
      <trkpt lat="44.49787" lon="2.14099">
        <ele>380.4</ele>
        <time>2022-04-27T14:32:42Z</time>
      </trkpt>
      <trkpt lat="44.49782" lon="2.14099">
        <ele>381.2</ele>
        <time>2022-04-27T14:32:50Z</time>
      </trkpt>
      <trkpt lat="44.49781" lon="2.141">
        <ele>382</ele>
        <time>2022-04-27T14:32:57Z</time>
      </trkpt>
      <trkpt lat="44.49781" lon="2.14099">
        <ele>382.2</ele>
        <time>2022-04-27T14:32:58Z</time>
      </trkpt>
      <trkpt lat="44.49777" lon="2.14094">
        <ele>383.4</ele>
        <time>2022-04-27T14:33:08Z</time>
      </trkpt>
      <trkpt lat="44.49776" lon="2.14093">
        <ele>384</ele>
        <time>2022-04-27T14:33:13Z</time>
      </trkpt>
      <trkpt lat="44.49775" lon="2.14092">
        <ele>384.4</ele>
        <time>2022-04-27T14:33:16Z</time>
      </trkpt>
      <trkpt lat="44.49774" lon="2.1409">
        <ele>385.6</ele>
        <time>2022-04-27T14:33:21Z</time>
      </trkpt>
      <trkpt lat="44.49772" lon="2.14085">
        <ele>386.8</ele>
        <time>2022-04-27T14:33:27Z</time>
      </trkpt>
      <trkpt lat="44.49771" lon="2.14083">
        <ele>387.2</ele>
        <time>2022-04-27T14:33:30Z</time>
      </trkpt>
      <trkpt lat="44.49769" lon="2.14081">
        <ele>387.8</ele>
        <time>2022-04-27T14:33:36Z</time>
      </trkpt>
      <trkpt lat="44.49768" lon="2.14078">
        <ele>388.8</ele>
        <time>2022-04-27T14:33:42Z</time>
      </trkpt>
      <trkpt lat="44.49766" lon="2.14075">
        <ele>389.8</ele>
        <time>2022-04-27T14:33:48Z</time>
      </trkpt>
      <trkpt lat="44.49767" lon="2.14075">
        <ele>390</ele>
        <time>2022-04-27T14:33:49Z</time>
      </trkpt>
      <trkpt lat="44.49766" lon="2.14066">
        <ele>390.6</ele>
        <time>2022-04-27T14:34:01Z</time>
      </trkpt>
      <trkpt lat="44.49765" lon="2.14058">
        <ele>391</ele>
        <time>2022-04-27T14:34:10Z</time>
      </trkpt>
      <trkpt lat="44.49764" lon="2.14052">
        <ele>391.4</ele>
        <time>2022-04-27T14:34:15Z</time>
      </trkpt>
      <trkpt lat="44.49764" lon="2.14046">
        <ele>392</ele>
        <time>2022-04-27T14:34:25Z</time>
      </trkpt>
      <trkpt lat="44.49766" lon="2.14043">
        <ele>392.2</ele>
        <time>2022-04-27T14:34:29Z</time>
      </trkpt>
      <trkpt lat="44.49768" lon="2.1403">
        <ele>391</ele>
        <time>2022-04-27T14:34:44Z</time>
      </trkpt>
      <trkpt lat="44.49768" lon="2.14029">
        <ele>391</ele>
        <time>2022-04-27T14:34:45Z</time>
      </trkpt>
      <trkpt lat="44.49768" lon="2.14029">
        <ele>391</ele>
        <time>2022-04-27T14:34:46Z</time>
      </trkpt>
      <trkpt lat="44.4977" lon="2.14015">
        <ele>390.4</ele>
        <time>2022-04-27T14:34:58Z</time>
      </trkpt>
      <trkpt lat="44.49769" lon="2.14002">
        <ele>391.2</ele>
        <time>2022-04-27T14:35:07Z</time>
      </trkpt>
      <trkpt lat="44.4977" lon="2.14">
        <ele>391.2</ele>
        <time>2022-04-27T14:35:09Z</time>
      </trkpt>
      <trkpt lat="44.4977" lon="2.13996">
        <ele>391.4</ele>
        <time>2022-04-27T14:35:11Z</time>
      </trkpt>
      <trkpt lat="44.49769" lon="2.13992">
        <ele>391.4</ele>
        <time>2022-04-27T14:35:14Z</time>
      </trkpt>
      <trkpt lat="44.4977" lon="2.13989">
        <ele>391.4</ele>
        <time>2022-04-27T14:35:16Z</time>
      </trkpt>
      <trkpt lat="44.4977" lon="2.13982">
        <ele>391.6</ele>
        <time>2022-04-27T14:35:24Z</time>
      </trkpt>
      <trkpt lat="44.4977" lon="2.13978">
        <ele>391.6</ele>
        <time>2022-04-27T14:35:35Z</time>
      </trkpt>
      <trkpt lat="44.4977" lon="2.13978">
        <ele>393.8</ele>
        <time>2022-04-27T14:35:37Z</time>
      </trkpt>
      <trkpt lat="44.49771" lon="2.13978">
        <ele>392.6</ele>
        <time>2022-04-27T14:35:42Z</time>
      </trkpt>
      <trkpt lat="44.49771" lon="2.13979">
        <ele>391.6</ele>
        <time>2022-04-27T14:35:45Z</time>
      </trkpt>
      <trkpt lat="44.49772" lon="2.13979">
        <ele>391.2</ele>
        <time>2022-04-27T14:35:50Z</time>
      </trkpt>
      <trkpt lat="44.49772" lon="2.13982">
        <ele>391.2</ele>
        <time>2022-04-27T14:36:08Z</time>
      </trkpt>
      <trkpt lat="44.49773" lon="2.13979">
        <ele>391.2</ele>
        <time>2022-04-27T14:36:19Z</time>
      </trkpt>
      <trkpt lat="44.49774" lon="2.13975">
        <ele>390.4</ele>
        <time>2022-04-27T14:36:23Z</time>
      </trkpt>
      <trkpt lat="44.49775" lon="2.13972">
        <ele>389.8</ele>
        <time>2022-04-27T14:36:29Z</time>
      </trkpt>
      <trkpt lat="44.49776" lon="2.13973">
        <ele>389.8</ele>
        <time>2022-04-27T14:36:37Z</time>
      </trkpt>
      <trkpt lat="44.49776" lon="2.13973">
        <ele>389.6</ele>
        <time>2022-04-27T14:36:42Z</time>
      </trkpt>
      <trkpt lat="44.49774" lon="2.13973">
        <ele>389.2</ele>
        <time>2022-04-27T14:36:49Z</time>
      </trkpt>
      <trkpt lat="44.49772" lon="2.13979">
        <ele>389</ele>
        <time>2022-04-27T14:36:55Z</time>
      </trkpt>
      <trkpt lat="44.4977" lon="2.1398">
        <ele>389.8</ele>
        <time>2022-04-27T14:36:58Z</time>
      </trkpt>
      <trkpt lat="44.49769" lon="2.1398">
        <ele>390.4</ele>
        <time>2022-04-27T14:36:59Z</time>
      </trkpt>
      <trkpt lat="44.49768" lon="2.1398">
        <ele>390.8</ele>
        <time>2022-04-27T14:37:00Z</time>
      </trkpt>
      <trkpt lat="44.49767" lon="2.13979">
        <ele>391</ele>
        <time>2022-04-27T14:37:02Z</time>
      </trkpt>
      <trkpt lat="44.49766" lon="2.13978">
        <ele>391.2</ele>
        <time>2022-04-27T14:37:03Z</time>
      </trkpt>
      <trkpt lat="44.49765" lon="2.13977">
        <ele>391.2</ele>
        <time>2022-04-27T14:37:04Z</time>
      </trkpt>
      <trkpt lat="44.49763" lon="2.13974">
        <ele>391.2</ele>
        <time>2022-04-27T14:37:07Z</time>
      </trkpt>
      <trkpt lat="44.49762" lon="2.13968">
        <ele>391.4</ele>
        <time>2022-04-27T14:37:13Z</time>
      </trkpt>
      <trkpt lat="44.49762" lon="2.13969">
        <ele>391.4</ele>
        <time>2022-04-27T14:37:14Z</time>
      </trkpt>
      <trkpt lat="44.49762" lon="2.13969">
        <ele>391.4</ele>
        <time>2022-04-27T14:37:15Z</time>
      </trkpt>
      <trkpt lat="44.49763" lon="2.13969">
        <ele>391.2</ele>
        <time>2022-04-27T14:37:23Z</time>
      </trkpt>
      <trkpt lat="44.49763" lon="2.1397">
        <ele>391</ele>
        <time>2022-04-27T14:37:39Z</time>
      </trkpt>
      <trkpt lat="44.49763" lon="2.13972">
        <ele>390.4</ele>
        <time>2022-04-27T14:37:54Z</time>
      </trkpt>
      <trkpt lat="44.49763" lon="2.13972">
        <ele>390.4</ele>
        <time>2022-04-27T14:37:55Z</time>
      </trkpt>
      <trkpt lat="44.49763" lon="2.13974">
        <ele>390.8</ele>
        <time>2022-04-27T14:38:11Z</time>
      </trkpt>
      <trkpt lat="44.49763" lon="2.13974">
        <ele>391.4</ele>
        <time>2022-04-27T14:38:18Z</time>
      </trkpt>
      <trkpt lat="44.49763" lon="2.13973">
        <ele>391.8</ele>
        <time>2022-04-27T14:38:32Z</time>
      </trkpt>
      <trkpt lat="44.49759" lon="2.13967">
        <ele>391.6</ele>
        <time>2022-04-27T14:38:44Z</time>
      </trkpt>
      <trkpt lat="44.49755" lon="2.13961">
        <ele>391.6</ele>
        <time>2022-04-27T14:38:51Z</time>
      </trkpt>
      <trkpt lat="44.49755" lon="2.13961">
        <ele>391.2</ele>
        <time>2022-04-27T14:38:55Z</time>
      </trkpt>
      <trkpt lat="44.49752" lon="2.13964">
        <ele>392.6</ele>
        <time>2022-04-27T14:39:05Z</time>
      </trkpt>
      <trkpt lat="44.49752" lon="2.13963">
        <ele>392.6</ele>
        <time>2022-04-27T14:39:07Z</time>
      </trkpt>
      <trkpt lat="44.49747" lon="2.13966">
        <ele>392.8</ele>
        <time>2022-04-27T14:39:19Z</time>
      </trkpt>
      <trkpt lat="44.49749" lon="2.13964">
        <ele>393.2</ele>
        <time>2022-04-27T14:39:31Z</time>
      </trkpt>
      <trkpt lat="44.49748" lon="2.13965">
        <ele>393.2</ele>
        <time>2022-04-27T14:39:43Z</time>
      </trkpt>
      <trkpt lat="44.49746" lon="2.13969">
        <ele>393.8</ele>
        <time>2022-04-27T14:39:52Z</time>
      </trkpt>
      <trkpt lat="44.49745" lon="2.13971">
        <ele>394.2</ele>
        <time>2022-04-27T14:39:54Z</time>
      </trkpt>
      <trkpt lat="44.49745" lon="2.13973">
        <ele>395</ele>
        <time>2022-04-27T14:39:57Z</time>
      </trkpt>
      <trkpt lat="44.49742" lon="2.13977">
        <ele>395.8</ele>
        <time>2022-04-27T14:40:04Z</time>
      </trkpt>
      <trkpt lat="44.49742" lon="2.13978">
        <ele>396</ele>
        <time>2022-04-27T14:40:05Z</time>
      </trkpt>
      <trkpt lat="44.49739" lon="2.13981">
        <ele>396.8</ele>
        <time>2022-04-27T14:40:09Z</time>
      </trkpt>
      <trkpt lat="44.49738" lon="2.13982">
        <ele>397.2</ele>
        <time>2022-04-27T14:40:10Z</time>
      </trkpt>
      <trkpt lat="44.49737" lon="2.13983">
        <ele>397.8</ele>
        <time>2022-04-27T14:40:12Z</time>
      </trkpt>
      <trkpt lat="44.49737" lon="2.13985">
        <ele>398.2</ele>
        <time>2022-04-27T14:40:15Z</time>
      </trkpt>
      <trkpt lat="44.49736" lon="2.13987">
        <ele>399.2</ele>
        <time>2022-04-27T14:40:18Z</time>
      </trkpt>
      <trkpt lat="44.49735" lon="2.13987">
        <ele>399.4</ele>
        <time>2022-04-27T14:40:19Z</time>
      </trkpt>
      <trkpt lat="44.49735" lon="2.13988">
        <ele>399.6</ele>
        <time>2022-04-27T14:40:20Z</time>
      </trkpt>
      <trkpt lat="44.49735" lon="2.1399">
        <ele>400</ele>
        <time>2022-04-27T14:40:22Z</time>
      </trkpt>
      <trkpt lat="44.49734" lon="2.13992">
        <ele>400.6</ele>
        <time>2022-04-27T14:40:26Z</time>
      </trkpt>
      <trkpt lat="44.49733" lon="2.13993">
        <ele>401</ele>
        <time>2022-04-27T14:40:28Z</time>
      </trkpt>
      <trkpt lat="44.49732" lon="2.13994">
        <ele>401.2</ele>
        <time>2022-04-27T14:40:29Z</time>
      </trkpt>
      <trkpt lat="44.49731" lon="2.13997">
        <ele>401.6</ele>
        <time>2022-04-27T14:40:31Z</time>
      </trkpt>
      <trkpt lat="44.49731" lon="2.13998">
        <ele>401.8</ele>
        <time>2022-04-27T14:40:32Z</time>
      </trkpt>
      <trkpt lat="44.49729" lon="2.14003">
        <ele>402.4</ele>
        <time>2022-04-27T14:40:36Z</time>
      </trkpt>
      <trkpt lat="44.49728" lon="2.14006">
        <ele>402.8</ele>
        <time>2022-04-27T14:40:40Z</time>
      </trkpt>
      <trkpt lat="44.49725" lon="2.14014">
        <ele>403.8</ele>
        <time>2022-04-27T14:40:47Z</time>
      </trkpt>
      <trkpt lat="44.49724" lon="2.14017">
        <ele>404.4</ele>
        <time>2022-04-27T14:40:50Z</time>
      </trkpt>
      <trkpt lat="44.49723" lon="2.1402">
        <ele>405</ele>
        <time>2022-04-27T14:40:53Z</time>
      </trkpt>
      <trkpt lat="44.49722" lon="2.14021">
        <ele>405.2</ele>
        <time>2022-04-27T14:40:56Z</time>
      </trkpt>
      <trkpt lat="44.49722" lon="2.14024">
        <ele>405.6</ele>
        <time>2022-04-27T14:41:00Z</time>
      </trkpt>
      <trkpt lat="44.49721" lon="2.14026">
        <ele>405.8</ele>
        <time>2022-04-27T14:41:02Z</time>
      </trkpt>
      <trkpt lat="44.49721" lon="2.14026">
        <ele>406</ele>
        <time>2022-04-27T14:41:03Z</time>
      </trkpt>
      <trkpt lat="44.49717" lon="2.14031">
        <ele>407</ele>
        <time>2022-04-27T14:41:09Z</time>
      </trkpt>
      <trkpt lat="44.49715" lon="2.14034">
        <ele>407.2</ele>
        <time>2022-04-27T14:41:13Z</time>
      </trkpt>
      <trkpt lat="44.49714" lon="2.14034">
        <ele>407.2</ele>
        <time>2022-04-27T14:41:14Z</time>
      </trkpt>
      <trkpt lat="44.49714" lon="2.14037">
        <ele>407.6</ele>
        <time>2022-04-27T14:41:17Z</time>
      </trkpt>
      <trkpt lat="44.49714" lon="2.14039">
        <ele>408</ele>
        <time>2022-04-27T14:41:20Z</time>
      </trkpt>
      <trkpt lat="44.49712" lon="2.14043">
        <ele>408.8</ele>
        <time>2022-04-27T14:41:25Z</time>
      </trkpt>
      <trkpt lat="44.4971" lon="2.14047">
        <ele>409.2</ele>
        <time>2022-04-27T14:41:29Z</time>
      </trkpt>
      <trkpt lat="44.49708" lon="2.1405">
        <ele>409.8</ele>
        <time>2022-04-27T14:41:33Z</time>
      </trkpt>
      <trkpt lat="44.49706" lon="2.14053">
        <ele>410.2</ele>
        <time>2022-04-27T14:41:36Z</time>
      </trkpt>
      <trkpt lat="44.49707" lon="2.14059">
        <ele>410.6</ele>
        <time>2022-04-27T14:41:40Z</time>
      </trkpt>
      <trkpt lat="44.49703" lon="2.14062">
        <ele>411.2</ele>
        <time>2022-04-27T14:41:46Z</time>
      </trkpt>
      <trkpt lat="44.49701" lon="2.14066">
        <ele>412.4</ele>
        <time>2022-04-27T14:41:50Z</time>
      </trkpt>
      <trkpt lat="44.49699" lon="2.14069">
        <ele>412.6</ele>
        <time>2022-04-27T14:41:53Z</time>
      </trkpt>
      <trkpt lat="44.497" lon="2.14071">
        <ele>412.6</ele>
        <time>2022-04-27T14:41:54Z</time>
      </trkpt>
      <trkpt lat="44.49701" lon="2.14082">
        <ele>413.2</ele>
        <time>2022-04-27T14:42:04Z</time>
      </trkpt>
      <trkpt lat="44.49698" lon="2.14083">
        <ele>413.4</ele>
        <time>2022-04-27T14:42:07Z</time>
      </trkpt>
      <trkpt lat="44.4969" lon="2.14084">
        <ele>413.8</ele>
        <time>2022-04-27T14:42:15Z</time>
      </trkpt>
      <trkpt lat="44.49686" lon="2.14082">
        <ele>413.8</ele>
        <time>2022-04-27T14:42:20Z</time>
      </trkpt>
      <trkpt lat="44.49686" lon="2.14081">
        <ele>413.8</ele>
        <time>2022-04-27T14:42:22Z</time>
      </trkpt>
      <trkpt lat="44.49684" lon="2.14082">
        <ele>413.8</ele>
        <time>2022-04-27T14:42:24Z</time>
      </trkpt>
      <trkpt lat="44.49679" lon="2.14087">
        <ele>414</ele>
        <time>2022-04-27T14:42:32Z</time>
      </trkpt>
      <trkpt lat="44.49676" lon="2.1409">
        <ele>414</ele>
        <time>2022-04-27T14:42:35Z</time>
      </trkpt>
      <trkpt lat="44.49667" lon="2.14093">
        <ele>413.4</ele>
        <time>2022-04-27T14:42:46Z</time>
      </trkpt>
      <trkpt lat="44.49661" lon="2.14089">
        <ele>413.4</ele>
        <time>2022-04-27T14:42:52Z</time>
      </trkpt>
      <trkpt lat="44.49654" lon="2.14088">
        <ele>413.2</ele>
        <time>2022-04-27T14:42:59Z</time>
      </trkpt>
      <trkpt lat="44.49636" lon="2.14085">
        <ele>413.6</ele>
        <time>2022-04-27T14:43:15Z</time>
      </trkpt>
      <trkpt lat="44.49622" lon="2.14076">
        <ele>412.8</ele>
        <time>2022-04-27T14:43:32Z</time>
      </trkpt>
      <trkpt lat="44.49617" lon="2.14075">
        <ele>412.4</ele>
        <time>2022-04-27T14:43:43Z</time>
      </trkpt>
      <trkpt lat="44.49616" lon="2.1407">
        <ele>412.2</ele>
        <time>2022-04-27T14:43:46Z</time>
      </trkpt>
      <trkpt lat="44.49615" lon="2.14067">
        <ele>411.8</ele>
        <time>2022-04-27T14:43:47Z</time>
      </trkpt>
      <trkpt lat="44.49613" lon="2.14064">
        <ele>411.2</ele>
        <time>2022-04-27T14:43:51Z</time>
      </trkpt>
      <trkpt lat="44.49616" lon="2.14059">
        <ele>410.4</ele>
        <time>2022-04-27T14:44:01Z</time>
      </trkpt>
      <trkpt lat="44.49614" lon="2.1406">
        <ele>410.2</ele>
        <time>2022-04-27T14:44:04Z</time>
      </trkpt>
      <trkpt lat="44.49608" lon="2.14061">
        <ele>410</ele>
        <time>2022-04-27T14:44:12Z</time>
      </trkpt>
      <trkpt lat="44.496" lon="2.14064">
        <ele>409.6</ele>
        <time>2022-04-27T14:44:23Z</time>
      </trkpt>
      <trkpt lat="44.49599" lon="2.14065">
        <ele>409.6</ele>
        <time>2022-04-27T14:44:24Z</time>
      </trkpt>
      <trkpt lat="44.49594" lon="2.14067">
        <ele>410</ele>
        <time>2022-04-27T14:44:29Z</time>
      </trkpt>
      <trkpt lat="44.49592" lon="2.14073">
        <ele>410.4</ele>
        <time>2022-04-27T14:44:36Z</time>
      </trkpt>
      <trkpt lat="44.49589" lon="2.14073">
        <ele>410.4</ele>
        <time>2022-04-27T14:44:49Z</time>
      </trkpt>
      <trkpt lat="44.4959" lon="2.14075">
        <ele>410.8</ele>
        <time>2022-04-27T14:44:57Z</time>
      </trkpt>
      <trkpt lat="44.49589" lon="2.14075">
        <ele>410.8</ele>
        <time>2022-04-27T14:45:09Z</time>
      </trkpt>
      <trkpt lat="44.4959" lon="2.1408">
        <ele>410.8</ele>
        <time>2022-04-27T14:45:19Z</time>
      </trkpt>
      <trkpt lat="44.49592" lon="2.1409">
        <ele>411.2</ele>
        <time>2022-04-27T14:45:29Z</time>
      </trkpt>
      <trkpt lat="44.49592" lon="2.14091">
        <ele>411.2</ele>
        <time>2022-04-27T14:45:30Z</time>
      </trkpt>
      <trkpt lat="44.49589" lon="2.141">
        <ele>412.4</ele>
        <time>2022-04-27T14:45:37Z</time>
      </trkpt>
      <trkpt lat="44.49585" lon="2.14104">
        <ele>412.6</ele>
        <time>2022-04-27T14:45:42Z</time>
      </trkpt>
      <trkpt lat="44.49582" lon="2.14119">
        <ele>413.4</ele>
        <time>2022-04-27T14:45:54Z</time>
      </trkpt>
      <trkpt lat="44.4958" lon="2.1412">
        <ele>413.6</ele>
        <time>2022-04-27T14:45:56Z</time>
      </trkpt>
      <trkpt lat="44.49572" lon="2.1412">
        <ele>414.4</ele>
        <time>2022-04-27T14:46:04Z</time>
      </trkpt>
      <trkpt lat="44.49567" lon="2.14121">
        <ele>415</ele>
        <time>2022-04-27T14:46:10Z</time>
      </trkpt>
      <trkpt lat="44.49555" lon="2.1413">
        <ele>415.6</ele>
        <time>2022-04-27T14:46:22Z</time>
      </trkpt>
      <trkpt lat="44.49551" lon="2.14131">
        <ele>415.6</ele>
        <time>2022-04-27T14:46:25Z</time>
      </trkpt>
      <trkpt lat="44.4954" lon="2.14123">
        <ele>416.4</ele>
        <time>2022-04-27T14:46:36Z</time>
      </trkpt>
      <trkpt lat="44.49535" lon="2.14124">
        <ele>416.6</ele>
        <time>2022-04-27T14:46:46Z</time>
      </trkpt>
      <trkpt lat="44.49532" lon="2.14127">
        <ele>416.6</ele>
        <time>2022-04-27T14:46:50Z</time>
      </trkpt>
      <trkpt lat="44.49529" lon="2.14135">
        <ele>416.6</ele>
        <time>2022-04-27T14:46:56Z</time>
      </trkpt>
      <trkpt lat="44.49523" lon="2.14155">
        <ele>417.4</ele>
        <time>2022-04-27T14:47:10Z</time>
      </trkpt>
      <trkpt lat="44.49515" lon="2.14165">
        <ele>417.2</ele>
        <time>2022-04-27T14:47:23Z</time>
      </trkpt>
      <trkpt lat="44.49513" lon="2.14165">
        <ele>417.2</ele>
        <time>2022-04-27T14:47:24Z</time>
      </trkpt>
      <trkpt lat="44.49506" lon="2.14165">
        <ele>417.6</ele>
        <time>2022-04-27T14:47:30Z</time>
      </trkpt>
      <trkpt lat="44.49502" lon="2.14166">
        <ele>418.2</ele>
        <time>2022-04-27T14:47:34Z</time>
      </trkpt>
    </trkseg>
  </trk>
</gpx>